<?xml version="1.0" encoding="UTF-8"?>
<gpx version="1.0" creator="Trackator" xmlns:xsi="http://www.w3.org/2001/XMLSchema-instance" xmlns="http://www.topografix.com/GPX/1/0" xmlns:topografix="http://www.topografix.com/GPX/Private/TopoGrafix/0/1" xsi:schemaLocation="http://www.topografix.com/GPX/1/0 http://www.topografix.com/GPX/1/0/gpx.xsd http://www.topografix.com/GPX/Private/TopoGrafix/0/1 http://www.topografix.com/GPX/Private/TopoGrafix/0/1/topografix.xsd">
<metadata>
<link href="http://www.trackator.com">
<text>Trackator</text>
</link>
</metadata>
<time>2015-05-19T:40:35Z</time>
<trk>
<name>Track: </name>
<desc>Cycling</desc>
<trkseg>
<trkpt lat="53.34799726" lon="18.44604173">
<ele>102</ele>
<time>2015-05-19T:40:35Z</time>
</trkpt>
<trkpt lat="53.34802166" lon="18.44603753">
<ele>102</ele>
<time>2015-05-19T12:40:37Z</time>
</trkpt>
<trkpt lat="53.34803979" lon="18.44602687">
<ele>102</ele>
<time>2015-05-19T12:40:39Z</time>
</trkpt>
<trkpt lat="53.34804676" lon="18.4460349">
<ele>102</ele>
<time>2015-05-19T12:40:41Z</time>
</trkpt>
<trkpt lat="53.34805388" lon="18.44602422">
<ele>102</ele>
<time>2015-05-19T12:40:43Z</time>
</trkpt>
<trkpt lat="53.34804693" lon="18.44604659">
<ele>102</ele>
<time>2015-05-19T12:40:45Z</time>
</trkpt>
<trkpt lat="53.34803562" lon="18.44607319">
<ele>102</ele>
<time>2015-05-19T12:40:47Z</time>
</trkpt>
<trkpt lat="53.34803064" lon="18.44609268">
<ele>102</ele>
<time>2015-05-19T12:40:49Z</time>
</trkpt>
<trkpt lat="53.3480379" lon="18.44612182">
<ele>102</ele>
<time>2015-05-19T12:40:51Z</time>
</trkpt>
<trkpt lat="53.34805135" lon="18.44618132">
<ele>102</ele>
<time>2015-05-19T12:40:53Z</time>
</trkpt>
<trkpt lat="53.34806231" lon="18.44625854">
<ele>102</ele>
<time>2015-05-19T12:40:55Z</time>
</trkpt>
<trkpt lat="53.3482848" lon="18.44645493">
<ele>102</ele>
<time>2015-05-19T12:40:57Z</time>
</trkpt>
<trkpt lat="53.34825791" lon="18.44633549">
<ele>103</ele>
<time>2015-05-19T12:40:59Z</time>
</trkpt>
<trkpt lat="53.34822454" lon="18.44624524">
<ele>105</ele>
<time>2015-05-19T12:41:01Z</time>
</trkpt>
<trkpt lat="53.34823738" lon="18.44624314">
<ele>106</ele>
<time>2015-05-19T12:41:03Z</time>
</trkpt>
<trkpt lat="53.34826482" lon="18.44623764">
<ele>106</ele>
<time>2015-05-19T12:41:05Z</time>
</trkpt>
<trkpt lat="53.34826964" lon="18.44623401">
<ele>103</ele>
<time>2015-05-19T12:41:07Z</time>
</trkpt>
<trkpt lat="53.34829228" lon="18.44627039">
<ele>104</ele>
<time>2015-05-19T12:41:09Z</time>
</trkpt>
<trkpt lat="53.34826506" lon="18.44628621">
<ele>105</ele>
<time>2015-05-19T12:41:11Z</time>
</trkpt>
<trkpt lat="53.34825132" lon="18.44629052">
<ele>104</ele>
<time>2015-05-19T12:41:13Z</time>
</trkpt>
<trkpt lat="53.34827382" lon="18.44628153">
<ele>103</ele>
<time>2015-05-19T12:41:15Z</time>
</trkpt>
<trkpt lat="53.34832432" lon="18.44627732">
<ele>104</ele>
<time>2015-05-19T12:41:17Z</time>
</trkpt>
<trkpt lat="53.34839378" lon="18.44619072">
<ele>82</ele>
<time>2015-05-19T12:42:24Z</time>
</trkpt>
<trkpt lat="53.34836048" lon="18.44616448">
<ele>93</ele>
<time>2015-05-19T12:42:27Z</time>
</trkpt>
<trkpt lat="53.34836481" lon="18.44611372">
<ele>92</ele>
<time>2015-05-19T12:42:29Z</time>
</trkpt>
<trkpt lat="53.34837219" lon="18.44606082">
<ele>92</ele>
<time>2015-05-19T12:42:31Z</time>
</trkpt>
<trkpt lat="53.34838002" lon="18.44600589">
<ele>92</ele>
<time>2015-05-19T12:42:33Z</time>
</trkpt>
<trkpt lat="53.34838253" lon="18.44594815">
<ele>90</ele>
<time>2015-05-19T12:42:35Z</time>
</trkpt>
<trkpt lat="53.34837271" lon="18.44588829">
<ele>91</ele>
<time>2015-05-19T12:42:37Z</time>
</trkpt>
<trkpt lat="53.34835831" lon="18.44582816">
<ele>89</ele>
<time>2015-05-19T12:42:39Z</time>
</trkpt>
<trkpt lat="53.34834448" lon="18.44576577">
<ele>86</ele>
<time>2015-05-19T12:42:41Z</time>
</trkpt>
<trkpt lat="53.34833293" lon="18.44569988">
<ele>85</ele>
<time>2015-05-19T12:42:43Z</time>
</trkpt>
<trkpt lat="53.34832582" lon="18.44562821">
<ele>88</ele>
<time>2015-05-19T12:42:45Z</time>
</trkpt>
<trkpt lat="53.34832849" lon="18.4455639">
<ele>88</ele>
<time>2015-05-19T12:42:47Z</time>
</trkpt>
<trkpt lat="53.3483408" lon="18.44551582">
<ele>89</ele>
<time>2015-05-19T12:42:49Z</time>
</trkpt>
<trkpt lat="53.3483496" lon="18.44546548">
<ele>90</ele>
<time>2015-05-19T12:42:51Z</time>
</trkpt>
<trkpt lat="53.34835649" lon="18.44542299">
<ele>91</ele>
<time>2015-05-19T12:42:53Z</time>
</trkpt>
<trkpt lat="53.34835904" lon="18.4453758">
<ele>92</ele>
<time>2015-05-19T12:42:55Z</time>
</trkpt>
<trkpt lat="53.34835559" lon="18.44532432">
<ele>92</ele>
<time>2015-05-19T12:42:57Z</time>
</trkpt>
<trkpt lat="53.34835514" lon="18.44527464">
<ele>93</ele>
<time>2015-05-19T12:42:59Z</time>
</trkpt>
<trkpt lat="53.34835741" lon="18.44522302">
<ele>93</ele>
<time>2015-05-19T12:43:01Z</time>
</trkpt>
<trkpt lat="53.3483588" lon="18.44517031">
<ele>93</ele>
<time>2015-05-19T12:43:03Z</time>
</trkpt>
<trkpt lat="53.34836487" lon="18.44511942">
<ele>94</ele>
<time>2015-05-19T12:43:05Z</time>
</trkpt>
<trkpt lat="53.3483688" lon="18.44506774">
<ele>94</ele>
<time>2015-05-19T12:43:07Z</time>
</trkpt>
<trkpt lat="53.34837001" lon="18.44501509">
<ele>95</ele>
<time>2015-05-19T12:43:09Z</time>
</trkpt>
<trkpt lat="53.34837386" lon="18.44496178">
<ele>95</ele>
<time>2015-05-19T12:43:11Z</time>
</trkpt>
<trkpt lat="53.34836268" lon="18.4449091">
<ele>95</ele>
<time>2015-05-19T12:43:13Z</time>
</trkpt>
<trkpt lat="53.34833979" lon="18.44486542">
<ele>94</ele>
<time>2015-05-19T12:43:15Z</time>
</trkpt>
<trkpt lat="53.34831259" lon="18.44482402">
<ele>94</ele>
<time>2015-05-19T12:43:17Z</time>
</trkpt>
<trkpt lat="53.34827647" lon="18.44481405">
<ele>94</ele>
<time>2015-05-19T12:43:19Z</time>
</trkpt>
<trkpt lat="53.34823947" lon="18.44480807">
<ele>94</ele>
<time>2015-05-19T12:43:21Z</time>
</trkpt>
<trkpt lat="53.34820433" lon="18.44479254">
<ele>97</ele>
<time>2015-05-19T12:43:23Z</time>
</trkpt>
<trkpt lat="53.34817204" lon="18.44476802">
<ele>97</ele>
<time>2015-05-19T12:43:25Z</time>
</trkpt>
<trkpt lat="53.34815108" lon="18.44472891">
<ele>96</ele>
<time>2015-05-19T12:43:27Z</time>
</trkpt>
<trkpt lat="53.34812656" lon="18.44469028">
<ele>96</ele>
<time>2015-05-19T12:43:29Z</time>
</trkpt>
<trkpt lat="53.34809383" lon="18.44464282">
<ele>96</ele>
<time>2015-05-19T12:43:31Z</time>
</trkpt>
<trkpt lat="53.34807911" lon="18.44459972">
<ele>95</ele>
<time>2015-05-19T12:43:33Z</time>
</trkpt>
<trkpt lat="53.34808715" lon="18.44455268">
<ele>95</ele>
<time>2015-05-19T12:43:35Z</time>
</trkpt>
<trkpt lat="53.34809819" lon="18.44449913">
<ele>98</ele>
<time>2015-05-19T12:43:37Z</time>
</trkpt>
<trkpt lat="53.34808142" lon="18.44445627">
<ele>96</ele>
<time>2015-05-19T12:43:39Z</time>
</trkpt>
<trkpt lat="53.34805355" lon="18.44442369">
<ele>98</ele>
<time>2015-05-19T12:43:41Z</time>
</trkpt>
<trkpt lat="53.34802117" lon="18.44439627">
<ele>98</ele>
<time>2015-05-19T12:43:43Z</time>
</trkpt>
<trkpt lat="53.34799021" lon="18.44437469">
<ele>99</ele>
<time>2015-05-19T12:43:45Z</time>
</trkpt>
<trkpt lat="53.34796146" lon="18.4443489">
<ele>101</ele>
<time>2015-05-19T12:43:47Z</time>
</trkpt>
<trkpt lat="53.34792965" lon="18.44432493">
<ele>101</ele>
<time>2015-05-19T12:43:49Z</time>
</trkpt>
<trkpt lat="53.34789698" lon="18.44430393">
<ele>99</ele>
<time>2015-05-19T12:43:51Z</time>
</trkpt>
<trkpt lat="53.34786927" lon="18.44427583">
<ele>98</ele>
<time>2015-05-19T12:43:53Z</time>
</trkpt>
<trkpt lat="53.34785188" lon="18.44422482">
<ele>97</ele>
<time>2015-05-19T12:43:55Z</time>
</trkpt>
<trkpt lat="53.34786346" lon="18.44416391">
<ele>99</ele>
<time>2015-05-19T12:43:57Z</time>
</trkpt>
<trkpt lat="53.34789611" lon="18.44409787">
<ele>99</ele>
<time>2015-05-19T12:43:59Z</time>
</trkpt>
<trkpt lat="53.34792382" lon="18.44403355">
<ele>100</ele>
<time>2015-05-19T12:44:01Z</time>
</trkpt>
<trkpt lat="53.34794951" lon="18.4439799">
<ele>99</ele>
<time>2015-05-19T12:44:03Z</time>
</trkpt>
<trkpt lat="53.34798286" lon="18.44393835">
<ele>98</ele>
<time>2015-05-19T12:44:05Z</time>
</trkpt>
<trkpt lat="53.3480004" lon="18.44388792">
<ele>97</ele>
<time>2015-05-19T12:44:07Z</time>
</trkpt>
<trkpt lat="53.34801217" lon="18.44384608">
<ele>96</ele>
<time>2015-05-19T12:44:09Z</time>
</trkpt>
<trkpt lat="53.34803661" lon="18.44375366">
<ele>95</ele>
<time>2015-05-19T12:44:13Z</time>
</trkpt>
<trkpt lat="53.34804929" lon="18.44370989">
<ele>94</ele>
<time>2015-05-19T12:44:15Z</time>
</trkpt>
<trkpt lat="53.34806121" lon="18.44366482">
<ele>94</ele>
<time>2015-05-19T12:44:17Z</time>
</trkpt>
<trkpt lat="53.34807764" lon="18.44362161">
<ele>92</ele>
<time>2015-05-19T12:44:19Z</time>
</trkpt>
<trkpt lat="53.34809025" lon="18.44357173">
<ele>92</ele>
<time>2015-05-19T12:44:21Z</time>
</trkpt>
<trkpt lat="53.34810506" lon="18.4435224">
<ele>92</ele>
<time>2015-05-19T12:44:23Z</time>
</trkpt>
<trkpt lat="53.34812283" lon="18.44347433">
<ele>93</ele>
<time>2015-05-19T12:44:25Z</time>
</trkpt>
<trkpt lat="53.34814145" lon="18.44342403">
<ele>94</ele>
<time>2015-05-19T12:44:27Z</time>
</trkpt>
<trkpt lat="53.34815971" lon="18.44337512">
<ele>95</ele>
<time>2015-05-19T12:44:29Z</time>
</trkpt>
<trkpt lat="53.34817469" lon="18.44332415">
<ele>94</ele>
<time>2015-05-19T12:44:31Z</time>
</trkpt>
<trkpt lat="53.34818256" lon="18.44326909">
<ele>96</ele>
<time>2015-05-19T12:44:33Z</time>
</trkpt>
<trkpt lat="53.34818762" lon="18.44321706">
<ele>97</ele>
<time>2015-05-19T12:44:35Z</time>
</trkpt>
<trkpt lat="53.34818756" lon="18.44316248">
<ele>97</ele>
<time>2015-05-19T12:44:37Z</time>
</trkpt>
<trkpt lat="53.34818699" lon="18.44311398">
<ele>97</ele>
<time>2015-05-19T12:44:39Z</time>
</trkpt>
<trkpt lat="53.34818574" lon="18.44307726">
<ele>98</ele>
<time>2015-05-19T12:44:41Z</time>
</trkpt>
<trkpt lat="53.34818061" lon="18.44303286">
<ele>99</ele>
<time>2015-05-19T12:44:43Z</time>
</trkpt>
<trkpt lat="53.34817304" lon="18.44298723">
<ele>98</ele>
<time>2015-05-19T12:44:45Z</time>
</trkpt>
<trkpt lat="53.34817269" lon="18.4429405">
<ele>97</ele>
<time>2015-05-19T12:44:47Z</time>
</trkpt>
<trkpt lat="53.34817184" lon="18.44288972">
<ele>96</ele>
<time>2015-05-19T12:44:49Z</time>
</trkpt>
<trkpt lat="53.34816818" lon="18.44283911">
<ele>95</ele>
<time>2015-05-19T12:44:51Z</time>
</trkpt>
<trkpt lat="53.34815882" lon="18.44279038">
<ele>94</ele>
<time>2015-05-19T12:44:53Z</time>
</trkpt>
<trkpt lat="53.3481507" lon="18.44274012">
<ele>93</ele>
<time>2015-05-19T12:44:55Z</time>
</trkpt>
<trkpt lat="53.34814521" lon="18.4426887">
<ele>94</ele>
<time>2015-05-19T12:44:57Z</time>
</trkpt>
<trkpt lat="53.34814015" lon="18.44263632">
<ele>94</ele>
<time>2015-05-19T12:44:59Z</time>
</trkpt>
<trkpt lat="53.34813225" lon="18.44257931">
<ele>94</ele>
<time>2015-05-19T12:45:01Z</time>
</trkpt>
<trkpt lat="53.34812682" lon="18.44251828">
<ele>95</ele>
<time>2015-05-19T12:45:03Z</time>
</trkpt>
<trkpt lat="53.34813253" lon="18.44246117">
<ele>95</ele>
<time>2015-05-19T12:45:05Z</time>
</trkpt>
<trkpt lat="53.34814523" lon="18.44240981">
<ele>95</ele>
<time>2015-05-19T12:45:07Z</time>
</trkpt>
<trkpt lat="53.34816278" lon="18.44235952">
<ele>97</ele>
<time>2015-05-19T12:45:09Z</time>
</trkpt>
<trkpt lat="53.34817555" lon="18.44230007">
<ele>97</ele>
<time>2015-05-19T12:45:11Z</time>
</trkpt>
<trkpt lat="53.34817484" lon="18.44224004">
<ele>97</ele>
<time>2015-05-19T12:45:13Z</time>
</trkpt>
<trkpt lat="53.34816958" lon="18.4421863">
<ele>96</ele>
<time>2015-05-19T12:45:15Z</time>
</trkpt>
<trkpt lat="53.34816779" lon="18.44213037">
<ele>96</ele>
<time>2015-05-19T12:45:17Z</time>
</trkpt>
<trkpt lat="53.34817221" lon="18.44207634">
<ele>95</ele>
<time>2015-05-19T12:45:19Z</time>
</trkpt>
<trkpt lat="53.34817372" lon="18.44202548">
<ele>93</ele>
<time>2015-05-19T12:45:21Z</time>
</trkpt>
<trkpt lat="53.34817284" lon="18.44197649">
<ele>92</ele>
<time>2015-05-19T12:45:23Z</time>
</trkpt>
<trkpt lat="53.34818414" lon="18.44193276">
<ele>92</ele>
<time>2015-05-19T12:45:25Z</time>
</trkpt>
<trkpt lat="53.34820697" lon="18.44189222">
<ele>93</ele>
<time>2015-05-19T12:45:27Z</time>
</trkpt>
<trkpt lat="53.34822962" lon="18.44183381">
<ele>94</ele>
<time>2015-05-19T12:45:29Z</time>
</trkpt>
<trkpt lat="53.34824677" lon="18.44177817">
<ele>95</ele>
<time>2015-05-19T12:45:31Z</time>
</trkpt>
<trkpt lat="53.3482677" lon="18.44172282">
<ele>94</ele>
<time>2015-05-19T12:45:33Z</time>
</trkpt>
<trkpt lat="53.34828806" lon="18.44166924">
<ele>94</ele>
<time>2015-05-19T12:45:35Z</time>
</trkpt>
<trkpt lat="53.34830552" lon="18.44160953">
<ele>93</ele>
<time>2015-05-19T12:45:37Z</time>
</trkpt>
<trkpt lat="53.34832625" lon="18.44155859">
<ele>95</ele>
<time>2015-05-19T12:45:39Z</time>
</trkpt>
<trkpt lat="53.34834454" lon="18.4415134">
<ele>94</ele>
<time>2015-05-19T12:45:41Z</time>
</trkpt>
<trkpt lat="53.34836646" lon="18.44146825">
<ele>94</ele>
<time>2015-05-19T12:45:43Z</time>
</trkpt>
<trkpt lat="53.34840763" lon="18.44137578">
<ele>93</ele>
<time>2015-05-19T12:45:47Z</time>
</trkpt>
<trkpt lat="53.34842501" lon="18.44133992">
<ele>93</ele>
<time>2015-05-19T12:45:49Z</time>
</trkpt>
<trkpt lat="53.3484391" lon="18.44129073">
<ele>93</ele>
<time>2015-05-19T12:45:51Z</time>
</trkpt>
<trkpt lat="53.34845542" lon="18.44123776">
<ele>90</ele>
<time>2015-05-19T12:45:53Z</time>
</trkpt>
<trkpt lat="53.34847071" lon="18.44119107">
<ele>89</ele>
<time>2015-05-19T12:45:55Z</time>
</trkpt>
<trkpt lat="53.34848079" lon="18.44113257">
<ele>88</ele>
<time>2015-05-19T12:45:57Z</time>
</trkpt>
<trkpt lat="53.34848872" lon="18.4410663">
<ele>89</ele>
<time>2015-05-19T12:45:59Z</time>
</trkpt>
<trkpt lat="53.3484936" lon="18.44099981">
<ele>89</ele>
<time>2015-05-19T12:46:01Z</time>
</trkpt>
<trkpt lat="53.34851173" lon="18.44088432">
<ele>92</ele>
<time>2015-05-19T12:46:05Z</time>
</trkpt>
<trkpt lat="53.34852612" lon="18.44083264">
<ele>94</ele>
<time>2015-05-19T12:46:07Z</time>
</trkpt>
<trkpt lat="53.34854129" lon="18.44077938">
<ele>93</ele>
<time>2015-05-19T12:46:09Z</time>
</trkpt>
<trkpt lat="53.34855577" lon="18.44072472">
<ele>94</ele>
<time>2015-05-19T12:46:11Z</time>
</trkpt>
<trkpt lat="53.34856948" lon="18.44066898">
<ele>94</ele>
<time>2015-05-19T12:46:13Z</time>
</trkpt>
<trkpt lat="53.3485805" lon="18.44061353">
<ele>95</ele>
<time>2015-05-19T12:46:15Z</time>
</trkpt>
<trkpt lat="53.348589" lon="18.44055688">
<ele>94</ele>
<time>2015-05-19T12:46:17Z</time>
</trkpt>
<trkpt lat="53.34860027" lon="18.44049592">
<ele>94</ele>
<time>2015-05-19T12:46:19Z</time>
</trkpt>
<trkpt lat="53.34861552" lon="18.44043654">
<ele>94</ele>
<time>2015-05-19T12:46:21Z</time>
</trkpt>
<trkpt lat="53.34863102" lon="18.44038105">
<ele>94</ele>
<time>2015-05-19T12:46:23Z</time>
</trkpt>
<trkpt lat="53.3486468" lon="18.4403274">
<ele>95</ele>
<time>2015-05-19T12:46:25Z</time>
</trkpt>
<trkpt lat="53.34866246" lon="18.4402773">
<ele>94</ele>
<time>2015-05-19T12:46:27Z</time>
</trkpt>
<trkpt lat="53.34867819" lon="18.44022779">
<ele>98</ele>
<time>2015-05-19T12:46:29Z</time>
</trkpt>
<trkpt lat="53.34869991" lon="18.44018228">
<ele>100</ele>
<time>2015-05-19T12:46:31Z</time>
</trkpt>
<trkpt lat="53.34871999" lon="18.44013586">
<ele>100</ele>
<time>2015-05-19T12:46:33Z</time>
</trkpt>
<trkpt lat="53.34873789" lon="18.44008348">
<ele>103</ele>
<time>2015-05-19T12:46:35Z</time>
</trkpt>
<trkpt lat="53.34875927" lon="18.44003386">
<ele>105</ele>
<time>2015-05-19T12:46:37Z</time>
</trkpt>
<trkpt lat="53.34877962" lon="18.43997929">
<ele>105</ele>
<time>2015-05-19T12:46:39Z</time>
</trkpt>
<trkpt lat="53.34880185" lon="18.43992954">
<ele>104</ele>
<time>2015-05-19T12:46:41Z</time>
</trkpt>
<trkpt lat="53.34881833" lon="18.43987624">
<ele>104</ele>
<time>2015-05-19T12:46:43Z</time>
</trkpt>
<trkpt lat="53.34883312" lon="18.43982909">
<ele>106</ele>
<time>2015-05-19T12:46:45Z</time>
</trkpt>
<trkpt lat="53.34884907" lon="18.43978438">
<ele>105</ele>
<time>2015-05-19T12:46:47Z</time>
</trkpt>
<trkpt lat="53.34886369" lon="18.4397387">
<ele>107</ele>
<time>2015-05-19T12:46:49Z</time>
</trkpt>
<trkpt lat="53.34887549" lon="18.43969042">
<ele>105</ele>
<time>2015-05-19T12:46:51Z</time>
</trkpt>
<trkpt lat="53.34888317" lon="18.43964134">
<ele>104</ele>
<time>2015-05-19T12:46:53Z</time>
</trkpt>
<trkpt lat="53.34888609" lon="18.43958635">
<ele>105</ele>
<time>2015-05-19T12:46:55Z</time>
</trkpt>
<trkpt lat="53.34888848" lon="18.43953337">
<ele>106</ele>
<time>2015-05-19T12:46:57Z</time>
</trkpt>
<trkpt lat="53.34888737" lon="18.43948206">
<ele>105</ele>
<time>2015-05-19T12:46:59Z</time>
</trkpt>
<trkpt lat="53.34888354" lon="18.43943962">
<ele>105</ele>
<time>2015-05-19T12:47:01Z</time>
</trkpt>
<trkpt lat="53.34886966" lon="18.43942666">
<ele>107</ele>
<time>2015-05-19T12:47:05Z</time>
</trkpt>
<trkpt lat="53.34884519" lon="18.43941138">
<ele>106</ele>
<time>2015-05-19T12:47:07Z</time>
</trkpt>
<trkpt lat="53.34882329" lon="18.43938923">
<ele>107</ele>
<time>2015-05-19T12:47:09Z</time>
</trkpt>
<trkpt lat="53.34880439" lon="18.43934639">
<ele>107</ele>
<time>2015-05-19T12:47:11Z</time>
</trkpt>
<trkpt lat="53.34879803" lon="18.43928227">
<ele>105</ele>
<time>2015-05-19T12:47:13Z</time>
</trkpt>
<trkpt lat="53.34879878" lon="18.4392349">
<ele>105</ele>
<time>2015-05-19T12:47:15Z</time>
</trkpt>
<trkpt lat="53.34880382" lon="18.43918406">
<ele>106</ele>
<time>2015-05-19T12:47:17Z</time>
</trkpt>
<trkpt lat="53.34881274" lon="18.43912578">
<ele>107</ele>
<time>2015-05-19T12:47:19Z</time>
</trkpt>
<trkpt lat="53.34882162" lon="18.43906649">
<ele>107</ele>
<time>2015-05-19T12:47:21Z</time>
</trkpt>
<trkpt lat="53.34883288" lon="18.43900037">
<ele>108</ele>
<time>2015-05-19T12:47:23Z</time>
</trkpt>
<trkpt lat="53.34884961" lon="18.43893871">
<ele>110</ele>
<time>2015-05-19T12:47:25Z</time>
</trkpt>
<trkpt lat="53.3488666" lon="18.43887821">
<ele>111</ele>
<time>2015-05-19T12:47:27Z</time>
</trkpt>
<trkpt lat="53.34887545" lon="18.4388214">
<ele>110</ele>
<time>2015-05-19T12:47:29Z</time>
</trkpt>
<trkpt lat="53.34887985" lon="18.43876333">
<ele>108</ele>
<time>2015-05-19T12:47:31Z</time>
</trkpt>
<trkpt lat="53.34888724" lon="18.43870748">
<ele>109</ele>
<time>2015-05-19T12:47:33Z</time>
</trkpt>
<trkpt lat="53.34889932" lon="18.43865225">
<ele>107</ele>
<time>2015-05-19T12:47:35Z</time>
</trkpt>
<trkpt lat="53.34891634" lon="18.43860717">
<ele>107</ele>
<time>2015-05-19T12:47:37Z</time>
</trkpt>
<trkpt lat="53.34890895" lon="18.43856396">
<ele>106</ele>
<time>2015-05-19T12:47:39Z</time>
</trkpt>
<trkpt lat="53.34889968" lon="18.43855319">
<ele>107</ele>
<time>2015-05-19T12:47:41Z</time>
</trkpt>
<trkpt lat="53.34889746" lon="18.43855169">
<ele>107</ele>
<time>2015-05-19T12:47:43Z</time>
</trkpt>
<trkpt lat="53.34889632" lon="18.43854774">
<ele>107</ele>
<time>2015-05-19T12:47:45Z</time>
</trkpt>
<trkpt lat="53.34889677" lon="18.43854076">
<ele>107</ele>
<time>2015-05-19T12:47:47Z</time>
</trkpt>
<trkpt lat="53.34889453" lon="18.43853178">
<ele>107</ele>
<time>2015-05-19T12:47:49Z</time>
</trkpt>
<trkpt lat="53.3488988" lon="18.43849722">
<ele>107</ele>
<time>2015-05-19T12:47:51Z</time>
</trkpt>
<trkpt lat="53.34886737" lon="18.43844078">
<ele>107</ele>
<time>2015-05-19T12:47:53Z</time>
</trkpt>
<trkpt lat="53.34885415" lon="18.43838868">
<ele>106</ele>
<time>2015-05-19T12:47:55Z</time>
</trkpt>
<trkpt lat="53.34884774" lon="18.43830574">
<ele>106</ele>
<time>2015-05-19T12:47:57Z</time>
</trkpt>
<trkpt lat="53.34880761" lon="18.43832871">
<ele>106</ele>
<time>2015-05-19T12:47:59Z</time>
</trkpt>
<trkpt lat="53.34877897" lon="18.43841171">
<ele>106</ele>
<time>2015-05-19T12:48:01Z</time>
</trkpt>
<trkpt lat="53.34878008" lon="18.43843838">
<ele>94</ele>
<time>2015-05-19T12:48:03Z</time>
</trkpt>
<trkpt lat="53.34880753" lon="18.43841007">
<ele>97</ele>
<time>2015-05-19T12:48:05Z</time>
</trkpt>
<trkpt lat="53.34884119" lon="18.43837349">
<ele>99</ele>
<time>2015-05-19T12:48:07Z</time>
</trkpt>
<trkpt lat="53.34888201" lon="18.43833993">
<ele>100</ele>
<time>2015-05-19T12:48:09Z</time>
</trkpt>
<trkpt lat="53.34887838" lon="18.43832802">
<ele>102</ele>
<time>2015-05-19T12:48:11Z</time>
</trkpt>
<trkpt lat="53.34886583" lon="18.43833286">
<ele>102</ele>
<time>2015-05-19T12:48:13Z</time>
</trkpt>
<trkpt lat="53.34886366" lon="18.43832006">
<ele>103</ele>
<time>2015-05-19T12:48:15Z</time>
</trkpt>
<trkpt lat="53.34904863" lon="18.43788292">
<ele>109</ele>
<time>2015-05-19T12:48:17Z</time>
</trkpt>
<trkpt lat="53.34903905" lon="18.4379055">
<ele>109</ele>
<time>2015-05-19T12:48:19Z</time>
</trkpt>
<trkpt lat="53.34902733" lon="18.43795186">
<ele>109</ele>
<time>2015-05-19T12:48:21Z</time>
</trkpt>
<trkpt lat="53.34901591" lon="18.43799379">
<ele>109</ele>
<time>2015-05-19T12:48:23Z</time>
</trkpt>
<trkpt lat="53.34901763" lon="18.43802165">
<ele>114</ele>
<time>2015-05-19T12:48:25Z</time>
</trkpt>
<trkpt lat="53.34901619" lon="18.43806628">
<ele>115</ele>
<time>2015-05-19T12:48:27Z</time>
</trkpt>
<trkpt lat="53.34900916" lon="18.43812558">
<ele>117</ele>
<time>2015-05-19T12:48:29Z</time>
</trkpt>
<trkpt lat="53.34900569" lon="18.43818292">
<ele>118</ele>
<time>2015-05-19T12:48:31Z</time>
</trkpt>
<trkpt lat="53.34898781" lon="18.43826813">
<ele>118</ele>
<time>2015-05-19T12:48:33Z</time>
</trkpt>
<trkpt lat="53.34896509" lon="18.43835777">
<ele>118</ele>
<time>2015-05-19T12:48:35Z</time>
</trkpt>
<trkpt lat="53.34895279" lon="18.43843255">
<ele>119</ele>
<time>2015-05-19T12:48:37Z</time>
</trkpt>
<trkpt lat="53.34894186" lon="18.4385058">
<ele>118</ele>
<time>2015-05-19T12:48:39Z</time>
</trkpt>
<trkpt lat="53.3489309" lon="18.4385852">
<ele>118</ele>
<time>2015-05-19T12:48:41Z</time>
</trkpt>
<trkpt lat="53.34892888" lon="18.43864213">
<ele>118</ele>
<time>2015-05-19T12:48:43Z</time>
</trkpt>
<trkpt lat="53.34889365" lon="18.43872991">
<ele>120</ele>
<time>2015-05-19T12:48:45Z</time>
</trkpt>
<trkpt lat="53.34884419" lon="18.43870813">
<ele>120</ele>
<time>2015-05-19T12:48:47Z</time>
</trkpt>
<trkpt lat="53.34881784" lon="18.43864159">
<ele>118</ele>
<time>2015-05-19T12:48:49Z</time>
</trkpt>
<trkpt lat="53.34879475" lon="18.43860665">
<ele>119</ele>
<time>2015-05-19T12:48:51Z</time>
</trkpt>
<trkpt lat="53.34878564" lon="18.43858903">
<ele>119</ele>
<time>2015-05-19T12:48:53Z</time>
</trkpt>
<trkpt lat="53.34877852" lon="18.43858122">
<ele>120</ele>
<time>2015-05-19T12:48:55Z</time>
</trkpt>
<trkpt lat="53.34866065" lon="18.43905095">
<ele>115</ele>
<time>2015-05-19T12:49:02Z</time>
</trkpt>
<trkpt lat="53.34863106" lon="18.43903058">
<ele>109</ele>
<time>2015-05-19T12:49:05Z</time>
</trkpt>
<trkpt lat="53.34901723" lon="18.43851193">
<ele>118</ele>
<time>2015-05-19T12:49:19Z</time>
</trkpt>
<trkpt lat="53.34906189" lon="18.4385777">
<ele>120</ele>
<time>2015-05-19T12:49:22Z</time>
</trkpt>
<trkpt lat="53.34909918" lon="18.43855656">
<ele>116</ele>
<time>2015-05-19T12:49:24Z</time>
</trkpt>
<trkpt lat="53.34911918" lon="18.4384943">
<ele>115</ele>
<time>2015-05-19T12:49:26Z</time>
</trkpt>
<trkpt lat="53.34913265" lon="18.43841919">
<ele>117</ele>
<time>2015-05-19T12:49:28Z</time>
</trkpt>
<trkpt lat="53.34914052" lon="18.43835066">
<ele>116</ele>
<time>2015-05-19T12:49:30Z</time>
</trkpt>
<trkpt lat="53.34914249" lon="18.4382994">
<ele>115</ele>
<time>2015-05-19T12:49:32Z</time>
</trkpt>
<trkpt lat="53.34914994" lon="18.43824465">
<ele>114</ele>
<time>2015-05-19T12:49:34Z</time>
</trkpt>
<trkpt lat="53.34916511" lon="18.43818563">
<ele>112</ele>
<time>2015-05-19T12:49:36Z</time>
</trkpt>
<trkpt lat="53.34919163" lon="18.43810897">
<ele>109</ele>
<time>2015-05-19T12:49:38Z</time>
</trkpt>
<trkpt lat="53.34920116" lon="18.43801882">
<ele>105</ele>
<time>2015-05-19T12:49:40Z</time>
</trkpt>
<trkpt lat="53.34920295" lon="18.43791278">
<ele>104</ele>
<time>2015-05-19T12:49:42Z</time>
</trkpt>
<trkpt lat="53.34922347" lon="18.43780029">
<ele>104</ele>
<time>2015-05-19T12:49:44Z</time>
</trkpt>
<trkpt lat="53.34924813" lon="18.43768283">
<ele>103</ele>
<time>2015-05-19T12:49:46Z</time>
</trkpt>
<trkpt lat="53.34927669" lon="18.43756118">
<ele>102</ele>
<time>2015-05-19T12:49:48Z</time>
</trkpt>
<trkpt lat="53.34931072" lon="18.4374267">
<ele>102</ele>
<time>2015-05-19T12:49:50Z</time>
</trkpt>
<trkpt lat="53.34933837" lon="18.43730117">
<ele>101</ele>
<time>2015-05-19T12:49:52Z</time>
</trkpt>
<trkpt lat="53.34936037" lon="18.43719944">
<ele>101</ele>
<time>2015-05-19T12:49:54Z</time>
</trkpt>
<trkpt lat="53.34938289" lon="18.43710281">
<ele>102</ele>
<time>2015-05-19T12:49:56Z</time>
</trkpt>
<trkpt lat="53.34940487" lon="18.43699536">
<ele>101</ele>
<time>2015-05-19T12:49:58Z</time>
</trkpt>
<trkpt lat="53.34943031" lon="18.43688557">
<ele>102</ele>
<time>2015-05-19T12:50:00Z</time>
</trkpt>
<trkpt lat="53.34945644" lon="18.4367769">
<ele>100</ele>
<time>2015-05-19T12:50:02Z</time>
</trkpt>
<trkpt lat="53.34947615" lon="18.4366864">
<ele>100</ele>
<time>2015-05-19T12:50:04Z</time>
</trkpt>
<trkpt lat="53.34948072" lon="18.43663207">
<ele>99</ele>
<time>2015-05-19T12:50:06Z</time>
</trkpt>
<trkpt lat="53.34946423" lon="18.43659789">
<ele>99</ele>
<time>2015-05-19T12:50:08Z</time>
</trkpt>
<trkpt lat="53.34941696" lon="18.43658264">
<ele>98</ele>
<time>2015-05-19T12:50:10Z</time>
</trkpt>
<trkpt lat="53.34934056" lon="18.43655322">
<ele>98</ele>
<time>2015-05-19T12:50:12Z</time>
</trkpt>
<trkpt lat="53.34926124" lon="18.43652202">
<ele>97</ele>
<time>2015-05-19T12:50:14Z</time>
</trkpt>
<trkpt lat="53.34918258" lon="18.43648801">
<ele>98</ele>
<time>2015-05-19T12:50:16Z</time>
</trkpt>
<trkpt lat="53.34910369" lon="18.43645424">
<ele>96</ele>
<time>2015-05-19T12:50:18Z</time>
</trkpt>
<trkpt lat="53.34902304" lon="18.43642947">
<ele>95</ele>
<time>2015-05-19T12:50:20Z</time>
</trkpt>
<trkpt lat="53.34894376" lon="18.43641503">
<ele>94</ele>
<time>2015-05-19T12:50:22Z</time>
</trkpt>
<trkpt lat="53.34886838" lon="18.43639112">
<ele>94</ele>
<time>2015-05-19T12:50:24Z</time>
</trkpt>
<trkpt lat="53.3488066" lon="18.43635409">
<ele>95</ele>
<time>2015-05-19T12:50:26Z</time>
</trkpt>
<trkpt lat="53.34876879" lon="18.4363027">
<ele>95</ele>
<time>2015-05-19T12:50:28Z</time>
</trkpt>
<trkpt lat="53.34877186" lon="18.43621272">
<ele>95</ele>
<time>2015-05-19T12:50:30Z</time>
</trkpt>
<trkpt lat="53.34879825" lon="18.43613871">
<ele>96</ele>
<time>2015-05-19T12:50:32Z</time>
</trkpt>
<trkpt lat="53.34882613" lon="18.43612341">
<ele>96</ele>
<time>2015-05-19T12:50:34Z</time>
</trkpt>
<trkpt lat="53.34884936" lon="18.4360957">
<ele>95</ele>
<time>2015-05-19T12:50:36Z</time>
</trkpt>
<trkpt lat="53.34885235" lon="18.4360249">
<ele>93</ele>
<time>2015-05-19T12:50:38Z</time>
</trkpt>
<trkpt lat="53.34884133" lon="18.43589769">
<ele>93</ele>
<time>2015-05-19T12:50:40Z</time>
</trkpt>
<trkpt lat="53.34880929" lon="18.43566799">
<ele>89</ele>
<time>2015-05-19T12:50:44Z</time>
</trkpt>
<trkpt lat="53.34880014" lon="18.43556701">
<ele>89</ele>
<time>2015-05-19T12:50:46Z</time>
</trkpt>
<trkpt lat="53.34878798" lon="18.43546441">
<ele>88</ele>
<time>2015-05-19T12:50:48Z</time>
</trkpt>
<trkpt lat="53.34877526" lon="18.43535079">
<ele>89</ele>
<time>2015-05-19T12:50:50Z</time>
</trkpt>
<trkpt lat="53.34876471" lon="18.43523543">
<ele>89</ele>
<time>2015-05-19T12:50:52Z</time>
</trkpt>
<trkpt lat="53.34875399" lon="18.43511944">
<ele>87</ele>
<time>2015-05-19T12:50:54Z</time>
</trkpt>
<trkpt lat="53.34874348" lon="18.43500597">
<ele>88</ele>
<time>2015-05-19T12:50:56Z</time>
</trkpt>
<trkpt lat="53.34873147" lon="18.4348871">
<ele>90</ele>
<time>2015-05-19T12:50:58Z</time>
</trkpt>
<trkpt lat="53.34870834" lon="18.43475859">
<ele>89</ele>
<time>2015-05-19T12:51:00Z</time>
</trkpt>
<trkpt lat="53.34869503" lon="18.43463149">
<ele>88</ele>
<time>2015-05-19T12:51:02Z</time>
</trkpt>
<trkpt lat="53.34868483" lon="18.43449029">
<ele>89</ele>
<time>2015-05-19T12:51:04Z</time>
</trkpt>
<trkpt lat="53.34867294" lon="18.43434069">
<ele>89</ele>
<time>2015-05-19T12:51:06Z</time>
</trkpt>
<trkpt lat="53.34864638" lon="18.4340695">
<ele>87</ele>
<time>2015-05-19T12:51:10Z</time>
</trkpt>
<trkpt lat="53.34863616" lon="18.43394401">
<ele>85</ele>
<time>2015-05-19T12:51:12Z</time>
</trkpt>
<trkpt lat="53.34862659" lon="18.43381234">
<ele>84</ele>
<time>2015-05-19T12:51:14Z</time>
</trkpt>
<trkpt lat="53.34859428" lon="18.43360486">
<ele>84</ele>
<time>2015-05-19T12:51:16Z</time>
</trkpt>
<trkpt lat="53.34855257" lon="18.43337654">
<ele>87</ele>
<time>2015-05-19T12:51:18Z</time>
</trkpt>
<trkpt lat="53.34848957" lon="18.43297892">
<ele>87</ele>
<time>2015-05-19T12:51:22Z</time>
</trkpt>
<trkpt lat="53.34847231" lon="18.4328434">
<ele>89</ele>
<time>2015-05-19T12:51:24Z</time>
</trkpt>
<trkpt lat="53.34848472" lon="18.43276978">
<ele>86</ele>
<time>2015-05-19T12:51:26Z</time>
</trkpt>
<trkpt lat="53.34847253" lon="18.43265351">
<ele>85</ele>
<time>2015-05-19T12:51:28Z</time>
</trkpt>
<trkpt lat="53.34845692" lon="18.43254939">
<ele>87</ele>
<time>2015-05-19T12:51:30Z</time>
</trkpt>
<trkpt lat="53.34843978" lon="18.43246563">
<ele>88</ele>
<time>2015-05-19T12:51:32Z</time>
</trkpt>
<trkpt lat="53.34842655" lon="18.43236666">
<ele>85</ele>
<time>2015-05-19T12:51:34Z</time>
</trkpt>
<trkpt lat="53.34841132" lon="18.43224995">
<ele>85</ele>
<time>2015-05-19T12:51:36Z</time>
</trkpt>
<trkpt lat="53.34838871" lon="18.43210786">
<ele>85</ele>
<time>2015-05-19T12:51:38Z</time>
</trkpt>
<trkpt lat="53.34836718" lon="18.43197526">
<ele>96</ele>
<time>2015-05-19T12:51:40Z</time>
</trkpt>
<trkpt lat="53.34835424" lon="18.43185837">
<ele>92</ele>
<time>2015-05-19T12:51:42Z</time>
</trkpt>
<trkpt lat="53.34833029" lon="18.4317402">
<ele>91</ele>
<time>2015-05-19T12:51:44Z</time>
</trkpt>
<trkpt lat="53.34831378" lon="18.43161556">
<ele>91</ele>
<time>2015-05-19T12:51:46Z</time>
</trkpt>
<trkpt lat="53.34829999" lon="18.43144683">
<ele>91</ele>
<time>2015-05-19T12:51:48Z</time>
</trkpt>
<trkpt lat="53.34829191" lon="18.43114286">
<ele>91</ele>
<time>2015-05-19T12:51:50Z</time>
</trkpt>
<trkpt lat="53.34830488" lon="18.43095891">
<ele>92</ele>
<time>2015-05-19T12:51:52Z</time>
</trkpt>
<trkpt lat="53.3482875" lon="18.43079628">
<ele>93</ele>
<time>2015-05-19T12:51:54Z</time>
</trkpt>
<trkpt lat="53.34826508" lon="18.43062554">
<ele>94</ele>
<time>2015-05-19T12:51:56Z</time>
</trkpt>
<trkpt lat="53.34820323" lon="18.43039213">
<ele>97</ele>
<time>2015-05-19T12:51:58Z</time>
</trkpt>
<trkpt lat="53.34819173" lon="18.43023397">
<ele>97</ele>
<time>2015-05-19T12:52:00Z</time>
</trkpt>
<trkpt lat="53.34815857" lon="18.43005437">
<ele>96</ele>
<time>2015-05-19T12:52:02Z</time>
</trkpt>
<trkpt lat="53.34815762" lon="18.42984718">
<ele>98</ele>
<time>2015-05-19T12:52:04Z</time>
</trkpt>
<trkpt lat="53.348147" lon="18.42966106">
<ele>98</ele>
<time>2015-05-19T12:52:06Z</time>
</trkpt>
<trkpt lat="53.34814263" lon="18.42949457">
<ele>100</ele>
<time>2015-05-19T12:52:08Z</time>
</trkpt>
<trkpt lat="53.3481985" lon="18.42943638">
<ele>101</ele>
<time>2015-05-19T12:52:10Z</time>
</trkpt>
<trkpt lat="53.34820297" lon="18.42923715">
<ele>100</ele>
<time>2015-05-19T12:52:12Z</time>
</trkpt>
<trkpt lat="53.34821247" lon="18.42904152">
<ele>104</ele>
<time>2015-05-19T12:52:14Z</time>
</trkpt>
<trkpt lat="53.34822088" lon="18.42888751">
<ele>102</ele>
<time>2015-05-19T12:52:16Z</time>
</trkpt>
<trkpt lat="53.34821491" lon="18.42874507">
<ele>103</ele>
<time>2015-05-19T12:52:18Z</time>
</trkpt>
<trkpt lat="53.34822833" lon="18.42853705">
<ele>103</ele>
<time>2015-05-19T12:52:20Z</time>
</trkpt>
<trkpt lat="53.34821874" lon="18.42838287">
<ele>102</ele>
<time>2015-05-19T12:52:22Z</time>
</trkpt>
<trkpt lat="53.34821263" lon="18.42816625">
<ele>100</ele>
<time>2015-05-19T12:52:24Z</time>
</trkpt>
<trkpt lat="53.34821573" lon="18.42800655">
<ele>102</ele>
<time>2015-05-19T12:52:26Z</time>
</trkpt>
<trkpt lat="53.34824369" lon="18.42785994">
<ele>103</ele>
<time>2015-05-19T12:52:28Z</time>
</trkpt>
<trkpt lat="53.34819609" lon="18.42760393">
<ele>107</ele>
<time>2015-05-19T12:52:30Z</time>
</trkpt>
<trkpt lat="53.34818552" lon="18.42744896">
<ele>110</ele>
<time>2015-05-19T12:52:32Z</time>
</trkpt>
<trkpt lat="53.34814815" lon="18.42732048">
<ele>111</ele>
<time>2015-05-19T12:52:34Z</time>
</trkpt>
<trkpt lat="53.34812613" lon="18.42727005">
<ele>111</ele>
<time>2015-05-19T12:52:36Z</time>
</trkpt>
<trkpt lat="53.34809257" lon="18.42717948">
<ele>110</ele>
<time>2015-05-19T12:52:38Z</time>
</trkpt>
<trkpt lat="53.34806032" lon="18.4270603">
<ele>110</ele>
<time>2015-05-19T12:52:40Z</time>
</trkpt>
<trkpt lat="53.34803043" lon="18.42694048">
<ele>110</ele>
<time>2015-05-19T12:52:42Z</time>
</trkpt>
<trkpt lat="53.34801202" lon="18.42687527">
<ele>111</ele>
<time>2015-05-19T12:52:44Z</time>
</trkpt>
<trkpt lat="53.34798944" lon="18.42679243">
<ele>111</ele>
<time>2015-05-19T12:52:46Z</time>
</trkpt>
<trkpt lat="53.34797738" lon="18.42671938">
<ele>109</ele>
<time>2015-05-19T12:52:48Z</time>
</trkpt>
<trkpt lat="53.34795809" lon="18.42667609">
<ele>106</ele>
<time>2015-05-19T12:52:50Z</time>
</trkpt>
<trkpt lat="53.34790629" lon="18.42663913">
<ele>104</ele>
<time>2015-05-19T12:52:52Z</time>
</trkpt>
<trkpt lat="53.34785441" lon="18.42659842">
<ele>103</ele>
<time>2015-05-19T12:52:54Z</time>
</trkpt>
<trkpt lat="53.34783697" lon="18.42654467">
<ele>102</ele>
<time>2015-05-19T12:52:56Z</time>
</trkpt>
<trkpt lat="53.34781395" lon="18.42647497">
<ele>103</ele>
<time>2015-05-19T12:52:58Z</time>
</trkpt>
<trkpt lat="53.34778727" lon="18.42640943">
<ele>102</ele>
<time>2015-05-19T12:53:00Z</time>
</trkpt>
<trkpt lat="53.34776493" lon="18.42635103">
<ele>102</ele>
<time>2015-05-19T12:53:02Z</time>
</trkpt>
<trkpt lat="53.34774117" lon="18.42628995">
<ele>101</ele>
<time>2015-05-19T12:53:04Z</time>
</trkpt>
<trkpt lat="53.34770807" lon="18.42624031">
<ele>101</ele>
<time>2015-05-19T12:53:06Z</time>
</trkpt>
<trkpt lat="53.3476876" lon="18.42621578">
<ele>101</ele>
<time>2015-05-19T12:53:08Z</time>
</trkpt>
<trkpt lat="53.34770411" lon="18.42621685">
<ele>99</ele>
<time>2015-05-19T12:53:10Z</time>
</trkpt>
<trkpt lat="53.34772281" lon="18.42619806">
<ele>100</ele>
<time>2015-05-19T12:53:12Z</time>
</trkpt>
<trkpt lat="53.34774397" lon="18.42616209">
<ele>100</ele>
<time>2015-05-19T12:53:14Z</time>
</trkpt>
<trkpt lat="53.34776724" lon="18.42612163">
<ele>105</ele>
<time>2015-05-19T12:53:16Z</time>
</trkpt>
<trkpt lat="53.3477624" lon="18.42605653">
<ele>105</ele>
<time>2015-05-19T12:53:18Z</time>
</trkpt>
<trkpt lat="53.34774062" lon="18.42598261">
<ele>108</ele>
<time>2015-05-19T12:53:20Z</time>
</trkpt>
<trkpt lat="53.34772816" lon="18.42590313">
<ele>104</ele>
<time>2015-05-19T12:53:22Z</time>
</trkpt>
<trkpt lat="53.34772564" lon="18.42585687">
<ele>106</ele>
<time>2015-05-19T12:53:24Z</time>
</trkpt>
<trkpt lat="53.34774468" lon="18.42582904">
<ele>105</ele>
<time>2015-05-19T12:53:26Z</time>
</trkpt>
<trkpt lat="53.3477814" lon="18.42579964">
<ele>103</ele>
<time>2015-05-19T12:53:28Z</time>
</trkpt>
<trkpt lat="53.34783085" lon="18.42574536">
<ele>102</ele>
<time>2015-05-19T12:53:30Z</time>
</trkpt>
<trkpt lat="53.34787612" lon="18.42569918">
<ele>103</ele>
<time>2015-05-19T12:53:32Z</time>
</trkpt>
<trkpt lat="53.34791947" lon="18.42565066">
<ele>103</ele>
<time>2015-05-19T12:53:34Z</time>
</trkpt>
<trkpt lat="53.34795716" lon="18.42559881">
<ele>104</ele>
<time>2015-05-19T12:53:36Z</time>
</trkpt>
<trkpt lat="53.34799429" lon="18.42554608">
<ele>105</ele>
<time>2015-05-19T12:53:38Z</time>
</trkpt>
<trkpt lat="53.34803797" lon="18.42550074">
<ele>105</ele>
<time>2015-05-19T12:53:40Z</time>
</trkpt>
<trkpt lat="53.34809336" lon="18.42547556">
<ele>108</ele>
<time>2015-05-19T12:53:42Z</time>
</trkpt>
<trkpt lat="53.34814201" lon="18.42545808">
<ele>108</ele>
<time>2015-05-19T12:53:44Z</time>
</trkpt>
<trkpt lat="53.34817292" lon="18.42541735">
<ele>109</ele>
<time>2015-05-19T12:53:46Z</time>
</trkpt>
<trkpt lat="53.348191" lon="18.42537964">
<ele>111</ele>
<time>2015-05-19T12:53:48Z</time>
</trkpt>
<trkpt lat="53.34821165" lon="18.42534401">
<ele>110</ele>
<time>2015-05-19T12:53:50Z</time>
</trkpt>
<trkpt lat="53.34823542" lon="18.425285">
<ele>109</ele>
<time>2015-05-19T12:53:52Z</time>
</trkpt>
<trkpt lat="53.34824742" lon="18.42519212">
<ele>108</ele>
<time>2015-05-19T12:53:54Z</time>
</trkpt>
<trkpt lat="53.34825793" lon="18.42511031">
<ele>106</ele>
<time>2015-05-19T12:53:56Z</time>
</trkpt>
<trkpt lat="53.34827651" lon="18.4250486">
<ele>104</ele>
<time>2015-05-19T12:53:58Z</time>
</trkpt>
<trkpt lat="53.34828729" lon="18.4250238">
<ele>105</ele>
<time>2015-05-19T12:54:00Z</time>
</trkpt>
<trkpt lat="53.34829731" lon="18.42501321">
<ele>107</ele>
<time>2015-05-19T12:54:02Z</time>
</trkpt>
<trkpt lat="53.34829334" lon="18.42499819">
<ele>106</ele>
<time>2015-05-19T12:54:04Z</time>
</trkpt>
<trkpt lat="53.34826189" lon="18.42496042">
<ele>109</ele>
<time>2015-05-19T12:54:06Z</time>
</trkpt>
<trkpt lat="53.34819304" lon="18.42485748">
<ele>111</ele>
<time>2015-05-19T12:54:08Z</time>
</trkpt>
<trkpt lat="53.34810532" lon="18.42464164">
<ele>112</ele>
<time>2015-05-19T12:54:10Z</time>
</trkpt>
<trkpt lat="53.34808779" lon="18.42440309">
<ele>112</ele>
<time>2015-05-19T12:54:12Z</time>
</trkpt>
<trkpt lat="53.34805913" lon="18.42419509">
<ele>111</ele>
<time>2015-05-19T12:54:14Z</time>
</trkpt>
<trkpt lat="53.34797098" lon="18.42405482">
<ele>108</ele>
<time>2015-05-19T12:54:16Z</time>
</trkpt>
<trkpt lat="53.34789874" lon="18.42390253">
<ele>111</ele>
<time>2015-05-19T12:54:18Z</time>
</trkpt>
<trkpt lat="53.34783225" lon="18.4237161">
<ele>112</ele>
<time>2015-05-19T12:54:20Z</time>
</trkpt>
<trkpt lat="53.34777373" lon="18.42365459">
<ele>114</ele>
<time>2015-05-19T12:54:22Z</time>
</trkpt>
<trkpt lat="53.34772918" lon="18.42352708">
<ele>114</ele>
<time>2015-05-19T12:54:24Z</time>
</trkpt>
<trkpt lat="53.34771845" lon="18.42335487">
<ele>114</ele>
<time>2015-05-19T12:54:26Z</time>
</trkpt>
<trkpt lat="53.34775516" lon="18.42315884">
<ele>115</ele>
<time>2015-05-19T12:54:28Z</time>
</trkpt>
<trkpt lat="53.34775893" lon="18.42300647">
<ele>116</ele>
<time>2015-05-19T12:54:30Z</time>
</trkpt>
<trkpt lat="53.34772716" lon="18.42284998">
<ele>112</ele>
<time>2015-05-19T12:54:32Z</time>
</trkpt>
<trkpt lat="53.34768113" lon="18.4226679">
<ele>112</ele>
<time>2015-05-19T12:54:34Z</time>
</trkpt>
<trkpt lat="53.34763047" lon="18.4225031">
<ele>111</ele>
<time>2015-05-19T12:54:36Z</time>
</trkpt>
<trkpt lat="53.34761459" lon="18.42239377">
<ele>110</ele>
<time>2015-05-19T12:54:38Z</time>
</trkpt>
<trkpt lat="53.347609" lon="18.42231261">
<ele>107</ele>
<time>2015-05-19T12:54:40Z</time>
</trkpt>
<trkpt lat="53.34759987" lon="18.42224678">
<ele>106</ele>
<time>2015-05-19T12:54:42Z</time>
</trkpt>
<trkpt lat="53.34751657" lon="18.42224647">
<ele>102</ele>
<time>2015-05-19T12:54:44Z</time>
</trkpt>
<trkpt lat="53.34749885" lon="18.42213799">
<ele>101</ele>
<time>2015-05-19T12:54:46Z</time>
</trkpt>
<trkpt lat="53.3474487" lon="18.42202139">
<ele>99</ele>
<time>2015-05-19T12:54:48Z</time>
</trkpt>
<trkpt lat="53.34740794" lon="18.42188817">
<ele>98</ele>
<time>2015-05-19T12:54:50Z</time>
</trkpt>
<trkpt lat="53.3473806" lon="18.42182012">
<ele>99</ele>
<time>2015-05-19T12:54:52Z</time>
</trkpt>
<trkpt lat="53.34733339" lon="18.4216989">
<ele>98</ele>
<time>2015-05-19T12:54:54Z</time>
</trkpt>
<trkpt lat="53.34729651" lon="18.42155715">
<ele>97</ele>
<time>2015-05-19T12:54:56Z</time>
</trkpt>
<trkpt lat="53.34724328" lon="18.4214613">
<ele>95</ele>
<time>2015-05-19T12:54:58Z</time>
</trkpt>
<trkpt lat="53.34721857" lon="18.42138154">
<ele>93</ele>
<time>2015-05-19T12:55:00Z</time>
</trkpt>
<trkpt lat="53.34718852" lon="18.4212834">
<ele>94</ele>
<time>2015-05-19T12:55:02Z</time>
</trkpt>
<trkpt lat="53.34717058" lon="18.42118392">
<ele>96</ele>
<time>2015-05-19T12:55:04Z</time>
</trkpt>
<trkpt lat="53.3471575" lon="18.42109894">
<ele>96</ele>
<time>2015-05-19T12:55:06Z</time>
</trkpt>
<trkpt lat="53.34714146" lon="18.42099897">
<ele>99</ele>
<time>2015-05-19T12:55:08Z</time>
</trkpt>
<trkpt lat="53.34712021" lon="18.42088353">
<ele>97</ele>
<time>2015-05-19T12:55:10Z</time>
</trkpt>
<trkpt lat="53.34711993" lon="18.42078084">
<ele>97</ele>
<time>2015-05-19T12:55:12Z</time>
</trkpt>
<trkpt lat="53.34711997" lon="18.42070338">
<ele>97</ele>
<time>2015-05-19T12:55:14Z</time>
</trkpt>
<trkpt lat="53.34711776" lon="18.42061609">
<ele>96</ele>
<time>2015-05-19T12:55:16Z</time>
</trkpt>
<trkpt lat="53.34710837" lon="18.42054181">
<ele>101</ele>
<time>2015-05-19T12:55:18Z</time>
</trkpt>
<trkpt lat="53.34710307" lon="18.42050987">
<ele>101</ele>
<time>2015-05-19T12:55:20Z</time>
</trkpt>
<trkpt lat="53.34709908" lon="18.42050843">
<ele>102</ele>
<time>2015-05-19T12:55:22Z</time>
</trkpt>
<trkpt lat="53.34710118" lon="18.42049623">
<ele>101</ele>
<time>2015-05-19T12:55:24Z</time>
</trkpt>
<trkpt lat="53.3471164" lon="18.42048236">
<ele>105</ele>
<time>2015-05-19T12:55:26Z</time>
</trkpt>
<trkpt lat="53.34713021" lon="18.42045468">
<ele>108</ele>
<time>2015-05-19T12:55:28Z</time>
</trkpt>
<trkpt lat="53.34714828" lon="18.42040428">
<ele>109</ele>
<time>2015-05-19T12:55:30Z</time>
</trkpt>
<trkpt lat="53.34716444" lon="18.42035897">
<ele>112</ele>
<time>2015-05-19T12:55:32Z</time>
</trkpt>
<trkpt lat="53.34717771" lon="18.42028228">
<ele>113</ele>
<time>2015-05-19T12:55:34Z</time>
</trkpt>
<trkpt lat="53.34717904" lon="18.42023163">
<ele>116</ele>
<time>2015-05-19T12:55:36Z</time>
</trkpt>
<trkpt lat="53.3471669" lon="18.42021418">
<ele>115</ele>
<time>2015-05-19T12:55:38Z</time>
</trkpt>
<trkpt lat="53.34714644" lon="18.42022547">
<ele>115</ele>
<time>2015-05-19T12:55:40Z</time>
</trkpt>
<trkpt lat="53.34712598" lon="18.42023288">
<ele>114</ele>
<time>2015-05-19T12:55:42Z</time>
</trkpt>
<trkpt lat="53.34709956" lon="18.42023106">
<ele>112</ele>
<time>2015-05-19T12:55:44Z</time>
</trkpt>
<trkpt lat="53.347079" lon="18.42019256">
<ele>112</ele>
<time>2015-05-19T12:55:46Z</time>
</trkpt>
<trkpt lat="53.3470662" lon="18.42014901">
<ele>112</ele>
<time>2015-05-19T12:55:48Z</time>
</trkpt>
<trkpt lat="53.34705886" lon="18.42010665">
<ele>113</ele>
<time>2015-05-19T12:55:50Z</time>
</trkpt>
<trkpt lat="53.34705628" lon="18.4200636">
<ele>113</ele>
<time>2015-05-19T12:55:52Z</time>
</trkpt>
<trkpt lat="53.3470505" lon="18.42003106">
<ele>113</ele>
<time>2015-05-19T12:55:54Z</time>
</trkpt>
<trkpt lat="53.34701717" lon="18.42001404">
<ele>112</ele>
<time>2015-05-19T12:55:56Z</time>
</trkpt>
<trkpt lat="53.34698" lon="18.42000276">
<ele>112</ele>
<time>2015-05-19T12:55:58Z</time>
</trkpt>
<trkpt lat="53.34694537" lon="18.42000661">
<ele>112</ele>
<time>2015-05-19T12:56:00Z</time>
</trkpt>
<trkpt lat="53.34707187" lon="18.42018717">
<ele>112</ele>
<time>2015-05-19T12:56:35Z</time>
</trkpt>
<trkpt lat="53.34711407" lon="18.42018457">
<ele>104</ele>
<time>2015-05-19T12:56:38Z</time>
</trkpt>
<trkpt lat="53.34713277" lon="18.42016815">
<ele>104</ele>
<time>2015-05-19T12:56:40Z</time>
</trkpt>
<trkpt lat="53.34715439" lon="18.4201268">
<ele>105</ele>
<time>2015-05-19T12:56:42Z</time>
</trkpt>
<trkpt lat="53.34716165" lon="18.42008376">
<ele>107</ele>
<time>2015-05-19T12:56:44Z</time>
</trkpt>
<trkpt lat="53.34716146" lon="18.42004485">
<ele>107</ele>
<time>2015-05-19T12:56:46Z</time>
</trkpt>
<trkpt lat="53.34715506" lon="18.42001375">
<ele>108</ele>
<time>2015-05-19T12:56:48Z</time>
</trkpt>
<trkpt lat="53.34714885" lon="18.41997493">
<ele>104</ele>
<time>2015-05-19T12:56:50Z</time>
</trkpt>
<trkpt lat="53.34715806" lon="18.41990029">
<ele>105</ele>
<time>2015-05-19T12:56:52Z</time>
</trkpt>
<trkpt lat="53.34715972" lon="18.41983445">
<ele>100</ele>
<time>2015-05-19T12:56:54Z</time>
</trkpt>
<trkpt lat="53.34715445" lon="18.41979354">
<ele>103</ele>
<time>2015-05-19T12:56:56Z</time>
</trkpt>
<trkpt lat="53.34715444" lon="18.41975284">
<ele>102</ele>
<time>2015-05-19T12:56:58Z</time>
</trkpt>
<trkpt lat="53.34715667" lon="18.41971798">
<ele>103</ele>
<time>2015-05-19T12:57:00Z</time>
</trkpt>
<trkpt lat="53.34715686" lon="18.41972799">
<ele>100</ele>
<time>2015-05-19T12:57:02Z</time>
</trkpt>
<trkpt lat="53.34715564" lon="18.41980551">
<ele>99</ele>
<time>2015-05-19T12:57:04Z</time>
</trkpt>
<trkpt lat="53.34713022" lon="18.41980216">
<ele>99</ele>
<time>2015-05-19T12:57:06Z</time>
</trkpt>
<trkpt lat="53.34711823" lon="18.41978621">
<ele>98</ele>
<time>2015-05-19T12:57:08Z</time>
</trkpt>
<trkpt lat="53.3471096" lon="18.41977296">
<ele>99</ele>
<time>2015-05-19T12:57:10Z</time>
</trkpt>
<trkpt lat="53.34711947" lon="18.41979653">
<ele>97</ele>
<time>2015-05-19T12:57:12Z</time>
</trkpt>
<trkpt lat="53.34712189" lon="18.4198104">
<ele>98</ele>
<time>2015-05-19T12:57:14Z</time>
</trkpt>
<trkpt lat="53.34712002" lon="18.41981156">
<ele>98</ele>
<time>2015-05-19T12:57:16Z</time>
</trkpt>
<trkpt lat="53.34711816" lon="18.41980847">
<ele>98</ele>
<time>2015-05-19T12:57:18Z</time>
</trkpt>
<trkpt lat="53.3471156" lon="18.41980464">
<ele>98</ele>
<time>2015-05-19T12:57:20Z</time>
</trkpt>
<trkpt lat="53.34711429" lon="18.4198027">
<ele>98</ele>
<time>2015-05-19T12:57:22Z</time>
</trkpt>
<trkpt lat="53.3471134" lon="18.41980189">
<ele>98</ele>
<time>2015-05-19T12:57:24Z</time>
</trkpt>
<trkpt lat="53.34711242" lon="18.41980115">
<ele>98</ele>
<time>2015-05-19T12:57:26Z</time>
</trkpt>
<trkpt lat="53.34711162" lon="18.41980019">
<ele>98</ele>
<time>2015-05-19T12:57:28Z</time>
</trkpt>
<trkpt lat="53.34711148" lon="18.41980028">
<ele>98</ele>
<time>2015-05-19T12:57:30Z</time>
</trkpt>
<trkpt lat="53.34711141" lon="18.41980042">
<ele>98</ele>
<time>2015-05-19T12:57:32Z</time>
</trkpt>
<trkpt lat="53.34711135" lon="18.41980048">
<ele>98</ele>
<time>2015-05-19T12:57:34Z</time>
</trkpt>
<trkpt lat="53.34711134" lon="18.4198005">
<ele>98</ele>
<time>2015-05-19T12:57:36Z</time>
</trkpt>
<trkpt lat="53.34711128" lon="18.41980043">
<ele>98</ele>
<time>2015-05-19T12:57:38Z</time>
</trkpt>
<trkpt lat="53.34711124" lon="18.41980029">
<ele>98</ele>
<time>2015-05-19T12:57:40Z</time>
</trkpt>
<trkpt lat="53.34711126" lon="18.4198002">
<ele>98</ele>
<time>2015-05-19T12:57:42Z</time>
</trkpt>
<trkpt lat="53.34711127" lon="18.41980017">
<ele>98</ele>
<time>2015-05-19T12:57:44Z</time>
</trkpt>
<trkpt lat="53.34711127" lon="18.41980012">
<ele>98</ele>
<time>2015-05-19T12:57:46Z</time>
</trkpt>
<trkpt lat="53.34711126" lon="18.4198001">
<ele>98</ele>
<time>2015-05-19T12:57:48Z</time>
</trkpt>
<trkpt lat="53.34711131" lon="18.41980012">
<ele>98</ele>
<time>2015-05-19T12:57:50Z</time>
</trkpt>
<trkpt lat="53.3471113" lon="18.41980014">
<ele>98</ele>
<time>2015-05-19T12:57:52Z</time>
</trkpt>
<trkpt lat="53.34711132" lon="18.41980036">
<ele>98</ele>
<time>2015-05-19T12:57:54Z</time>
</trkpt>
<trkpt lat="53.34711129" lon="18.41980039">
<ele>98</ele>
<time>2015-05-19T12:57:56Z</time>
</trkpt>
<trkpt lat="53.34711132" lon="18.41980055">
<ele>98</ele>
<time>2015-05-19T12:57:58Z</time>
</trkpt>
<trkpt lat="53.34711133" lon="18.41980066">
<ele>98</ele>
<time>2015-05-19T12:58:00Z</time>
</trkpt>
<trkpt lat="53.34711134" lon="18.41980075">
<ele>98</ele>
<time>2015-05-19T12:58:02Z</time>
</trkpt>
<trkpt lat="53.34711132" lon="18.4198007">
<ele>98</ele>
<time>2015-05-19T12:58:04Z</time>
</trkpt>
<trkpt lat="53.34711144" lon="18.41980092">
<ele>98</ele>
<time>2015-05-19T12:58:06Z</time>
</trkpt>
<trkpt lat="53.34711156" lon="18.41980111">
<ele>98</ele>
<time>2015-05-19T12:58:08Z</time>
</trkpt>
<trkpt lat="53.34711168" lon="18.41980135">
<ele>98</ele>
<time>2015-05-19T12:58:10Z</time>
</trkpt>
<trkpt lat="53.34711183" lon="18.41980172">
<ele>98</ele>
<time>2015-05-19T12:58:12Z</time>
</trkpt>
<trkpt lat="53.34711191" lon="18.41980198">
<ele>98</ele>
<time>2015-05-19T12:58:14Z</time>
</trkpt>
<trkpt lat="53.34710964" lon="18.41980753">
<ele>99</ele>
<time>2015-05-19T12:58:16Z</time>
</trkpt>
<trkpt lat="53.34711323" lon="18.41984604">
<ele>102</ele>
<time>2015-05-19T12:58:18Z</time>
</trkpt>
<trkpt lat="53.3471284" lon="18.41990611">
<ele>98</ele>
<time>2015-05-19T12:58:20Z</time>
</trkpt>
<trkpt lat="53.34717836" lon="18.41996938">
<ele>99</ele>
<time>2015-05-19T12:58:22Z</time>
</trkpt>
<trkpt lat="53.3472327" lon="18.42001472">
<ele>101</ele>
<time>2015-05-19T12:58:24Z</time>
</trkpt>
<trkpt lat="53.3472674" lon="18.42010496">
<ele>101</ele>
<time>2015-05-19T12:58:26Z</time>
</trkpt>
<trkpt lat="53.34728103" lon="18.4201879">
<ele>102</ele>
<time>2015-05-19T12:58:28Z</time>
</trkpt>
<trkpt lat="53.34727732" lon="18.4202497">
<ele>101</ele>
<time>2015-05-19T12:58:30Z</time>
</trkpt>
<trkpt lat="53.34725919" lon="18.42032027">
<ele>98</ele>
<time>2015-05-19T12:58:32Z</time>
</trkpt>
<trkpt lat="53.34723185" lon="18.42042975">
<ele>99</ele>
<time>2015-05-19T12:58:34Z</time>
</trkpt>
<trkpt lat="53.34718696" lon="18.42056074">
<ele>99</ele>
<time>2015-05-19T12:58:36Z</time>
</trkpt>
<trkpt lat="53.34714229" lon="18.42068757">
<ele>98</ele>
<time>2015-05-19T12:58:38Z</time>
</trkpt>
<trkpt lat="53.34713913" lon="18.42083076">
<ele>96</ele>
<time>2015-05-19T12:58:40Z</time>
</trkpt>
<trkpt lat="53.34717219" lon="18.42098345">
<ele>98</ele>
<time>2015-05-19T12:58:42Z</time>
</trkpt>
<trkpt lat="53.34721666" lon="18.42126941">
<ele>102</ele>
<time>2015-05-19T12:58:44Z</time>
</trkpt>
<trkpt lat="53.34724578" lon="18.42134353">
<ele>104</ele>
<time>2015-05-19T12:58:46Z</time>
</trkpt>
<trkpt lat="53.3472773" lon="18.42143802">
<ele>105</ele>
<time>2015-05-19T12:58:48Z</time>
</trkpt>
<trkpt lat="53.34729786" lon="18.42154746">
<ele>106</ele>
<time>2015-05-19T12:58:50Z</time>
</trkpt>
<trkpt lat="53.34732343" lon="18.42162233">
<ele>105</ele>
<time>2015-05-19T12:58:52Z</time>
</trkpt>
<trkpt lat="53.34735172" lon="18.4217274">
<ele>107</ele>
<time>2015-05-19T12:58:54Z</time>
</trkpt>
<trkpt lat="53.3473865" lon="18.42184685">
<ele>108</ele>
<time>2015-05-19T12:58:56Z</time>
</trkpt>
<trkpt lat="53.34742587" lon="18.4219758">
<ele>107</ele>
<time>2015-05-19T12:58:58Z</time>
</trkpt>
<trkpt lat="53.34746163" lon="18.42210171">
<ele>107</ele>
<time>2015-05-19T12:59:00Z</time>
</trkpt>
<trkpt lat="53.34749766" lon="18.4222293">
<ele>108</ele>
<time>2015-05-19T12:59:02Z</time>
</trkpt>
<trkpt lat="53.34753511" lon="18.4223551">
<ele>108</ele>
<time>2015-05-19T12:59:04Z</time>
</trkpt>
<trkpt lat="53.34757618" lon="18.42247639">
<ele>104</ele>
<time>2015-05-19T12:59:06Z</time>
</trkpt>
<trkpt lat="53.34763558" lon="18.42261268">
<ele>103</ele>
<time>2015-05-19T12:59:08Z</time>
</trkpt>
<trkpt lat="53.34769046" lon="18.42276012">
<ele>102</ele>
<time>2015-05-19T12:59:10Z</time>
</trkpt>
<trkpt lat="53.34773426" lon="18.42290515">
<ele>102</ele>
<time>2015-05-19T12:59:12Z</time>
</trkpt>
<trkpt lat="53.34776531" lon="18.42300394">
<ele>102</ele>
<time>2015-05-19T12:59:14Z</time>
</trkpt>
<trkpt lat="53.34777108" lon="18.42306908">
<ele>100</ele>
<time>2015-05-19T12:59:16Z</time>
</trkpt>
<trkpt lat="53.3478079" lon="18.42314447">
<ele>101</ele>
<time>2015-05-19T12:59:18Z</time>
</trkpt>
<trkpt lat="53.34782761" lon="18.4231947">
<ele>99</ele>
<time>2015-05-19T12:59:20Z</time>
</trkpt>
<trkpt lat="53.34789408" lon="18.42339545">
<ele>99</ele>
<time>2015-05-19T12:59:24Z</time>
</trkpt>
<trkpt lat="53.34793521" lon="18.42352389">
<ele>101</ele>
<time>2015-05-19T12:59:26Z</time>
</trkpt>
<trkpt lat="53.3479919" lon="18.4236842">
<ele>102</ele>
<time>2015-05-19T12:59:28Z</time>
</trkpt>
<trkpt lat="53.34805618" lon="18.42383499">
<ele>103</ele>
<time>2015-05-19T12:59:30Z</time>
</trkpt>
<trkpt lat="53.34809277" lon="18.42395999">
<ele>99</ele>
<time>2015-05-19T12:59:32Z</time>
</trkpt>
<trkpt lat="53.34815559" lon="18.4240905">
<ele>99</ele>
<time>2015-05-19T12:59:34Z</time>
</trkpt>
<trkpt lat="53.34822028" lon="18.42424322">
<ele>99</ele>
<time>2015-05-19T12:59:36Z</time>
</trkpt>
<trkpt lat="53.34827611" lon="18.4243851">
<ele>98</ele>
<time>2015-05-19T12:59:38Z</time>
</trkpt>
<trkpt lat="53.34832796" lon="18.42454054">
<ele>99</ele>
<time>2015-05-19T12:59:40Z</time>
</trkpt>
<trkpt lat="53.34837939" lon="18.42469769">
<ele>99</ele>
<time>2015-05-19T12:59:42Z</time>
</trkpt>
<trkpt lat="53.3484263" lon="18.42487671">
<ele>100</ele>
<time>2015-05-19T12:59:44Z</time>
</trkpt>
<trkpt lat="53.34847507" lon="18.4250519">
<ele>100</ele>
<time>2015-05-19T12:59:46Z</time>
</trkpt>
<trkpt lat="53.34853411" lon="18.42522148">
<ele>101</ele>
<time>2015-05-19T12:59:48Z</time>
</trkpt>
<trkpt lat="53.34860095" lon="18.42537284">
<ele>98</ele>
<time>2015-05-19T12:59:50Z</time>
</trkpt>
<trkpt lat="53.34872301" lon="18.42569651">
<ele>97</ele>
<time>2015-05-19T12:59:54Z</time>
</trkpt>
<trkpt lat="53.34878359" lon="18.42584595">
<ele>97</ele>
<time>2015-05-19T12:59:56Z</time>
</trkpt>
<trkpt lat="53.34882892" lon="18.42600866">
<ele>98</ele>
<time>2015-05-19T12:59:58Z</time>
</trkpt>
<trkpt lat="53.34886279" lon="18.42613682">
<ele>98</ele>
<time>2015-05-19T13:00:00Z</time>
</trkpt>
<trkpt lat="53.34888314" lon="18.42618795">
<ele>98</ele>
<time>2015-05-19T13:00:02Z</time>
</trkpt>
<trkpt lat="53.34890782" lon="18.42626036">
<ele>97</ele>
<time>2015-05-19T13:00:04Z</time>
</trkpt>
<trkpt lat="53.34893843" lon="18.42637337">
<ele>97</ele>
<time>2015-05-19T13:00:06Z</time>
</trkpt>
<trkpt lat="53.34897954" lon="18.42650339">
<ele>97</ele>
<time>2015-05-19T13:00:08Z</time>
</trkpt>
<trkpt lat="53.34902645" lon="18.42664171">
<ele>97</ele>
<time>2015-05-19T13:00:10Z</time>
</trkpt>
<trkpt lat="53.34906727" lon="18.42679396">
<ele>99</ele>
<time>2015-05-19T13:00:12Z</time>
</trkpt>
<trkpt lat="53.3491223" lon="18.42694842">
<ele>98</ele>
<time>2015-05-19T13:00:14Z</time>
</trkpt>
<trkpt lat="53.34916718" lon="18.4270985">
<ele>96</ele>
<time>2015-05-19T13:00:16Z</time>
</trkpt>
<trkpt lat="53.34922774" lon="18.42724483">
<ele>95</ele>
<time>2015-05-19T13:00:18Z</time>
</trkpt>
<trkpt lat="53.34927435" lon="18.42738063">
<ele>94</ele>
<time>2015-05-19T13:00:20Z</time>
</trkpt>
<trkpt lat="53.34932217" lon="18.42753302">
<ele>93</ele>
<time>2015-05-19T13:00:22Z</time>
</trkpt>
<trkpt lat="53.34935552" lon="18.42769611">
<ele>95</ele>
<time>2015-05-19T13:00:24Z</time>
</trkpt>
<trkpt lat="53.34941901" lon="18.42783553">
<ele>95</ele>
<time>2015-05-19T13:00:26Z</time>
</trkpt>
<trkpt lat="53.34947858" lon="18.42798322">
<ele>96</ele>
<time>2015-05-19T13:00:28Z</time>
</trkpt>
<trkpt lat="53.3495422" lon="18.42814616">
<ele>97</ele>
<time>2015-05-19T13:00:30Z</time>
</trkpt>
<trkpt lat="53.34960324" lon="18.42829885">
<ele>96</ele>
<time>2015-05-19T13:00:32Z</time>
</trkpt>
<trkpt lat="53.34965506" lon="18.42846087">
<ele>96</ele>
<time>2015-05-19T13:00:34Z</time>
</trkpt>
<trkpt lat="53.34970493" lon="18.42860918">
<ele>96</ele>
<time>2015-05-19T13:00:36Z</time>
</trkpt>
<trkpt lat="53.349763" lon="18.42875511">
<ele>96</ele>
<time>2015-05-19T13:00:38Z</time>
</trkpt>
<trkpt lat="53.34982381" lon="18.4288915">
<ele>98</ele>
<time>2015-05-19T13:00:40Z</time>
</trkpt>
<trkpt lat="53.34988959" lon="18.4289879">
<ele>99</ele>
<time>2015-05-19T13:00:42Z</time>
</trkpt>
<trkpt lat="53.34994798" lon="18.42907961">
<ele>99</ele>
<time>2015-05-19T13:00:44Z</time>
</trkpt>
<trkpt lat="53.34997153" lon="18.42917822">
<ele>100</ele>
<time>2015-05-19T13:00:46Z</time>
</trkpt>
<trkpt lat="53.34999634" lon="18.42927942">
<ele>102</ele>
<time>2015-05-19T13:00:48Z</time>
</trkpt>
<trkpt lat="53.3500281" lon="18.42937879">
<ele>103</ele>
<time>2015-05-19T13:00:50Z</time>
</trkpt>
<trkpt lat="53.35006036" lon="18.42946067">
<ele>104</ele>
<time>2015-05-19T13:00:52Z</time>
</trkpt>
<trkpt lat="53.35010135" lon="18.42945457">
<ele>104</ele>
<time>2015-05-19T13:00:54Z</time>
</trkpt>
<trkpt lat="53.35014421" lon="18.42940401">
<ele>107</ele>
<time>2015-05-19T13:00:56Z</time>
</trkpt>
<trkpt lat="53.35019504" lon="18.42934247">
<ele>106</ele>
<time>2015-05-19T13:00:58Z</time>
</trkpt>
<trkpt lat="53.35026406" lon="18.42926947">
<ele>105</ele>
<time>2015-05-19T13:01:00Z</time>
</trkpt>
<trkpt lat="53.35033401" lon="18.42920027">
<ele>104</ele>
<time>2015-05-19T13:01:02Z</time>
</trkpt>
<trkpt lat="53.35039939" lon="18.42914042">
<ele>104</ele>
<time>2015-05-19T13:01:04Z</time>
</trkpt>
<trkpt lat="53.35046436" lon="18.42907915">
<ele>106</ele>
<time>2015-05-19T13:01:06Z</time>
</trkpt>
<trkpt lat="53.35060356" lon="18.42893708">
<ele>107</ele>
<time>2015-05-19T13:01:10Z</time>
</trkpt>
<trkpt lat="53.35064694" lon="18.42890446">
<ele>107</ele>
<time>2015-05-19T13:01:12Z</time>
</trkpt>
<trkpt lat="53.35067548" lon="18.42891203">
<ele>107</ele>
<time>2015-05-19T13:01:14Z</time>
</trkpt>
<trkpt lat="53.35069809" lon="18.42894471">
<ele>107</ele>
<time>2015-05-19T13:01:16Z</time>
</trkpt>
<trkpt lat="53.35073535" lon="18.42898812">
<ele>108</ele>
<time>2015-05-19T13:01:18Z</time>
</trkpt>
<trkpt lat="53.35079256" lon="18.42907667">
<ele>109</ele>
<time>2015-05-19T13:01:20Z</time>
</trkpt>
<trkpt lat="53.35083098" lon="18.42919294">
<ele>108</ele>
<time>2015-05-19T13:01:22Z</time>
</trkpt>
<trkpt lat="53.35083842" lon="18.42937205">
<ele>106</ele>
<time>2015-05-19T13:01:24Z</time>
</trkpt>
<trkpt lat="53.35084128" lon="18.42951243">
<ele>104</ele>
<time>2015-05-19T13:01:26Z</time>
</trkpt>
<trkpt lat="53.35083663" lon="18.42967091">
<ele>104</ele>
<time>2015-05-19T13:01:28Z</time>
</trkpt>
<trkpt lat="53.35083446" lon="18.4298546">
<ele>104</ele>
<time>2015-05-19T13:01:30Z</time>
</trkpt>
<trkpt lat="53.35080749" lon="18.43002338">
<ele>104</ele>
<time>2015-05-19T13:01:32Z</time>
</trkpt>
<trkpt lat="53.35077058" lon="18.43015743">
<ele>105</ele>
<time>2015-05-19T13:01:34Z</time>
</trkpt>
<trkpt lat="53.35076949" lon="18.43034166">
<ele>105</ele>
<time>2015-05-19T13:01:36Z</time>
</trkpt>
<trkpt lat="53.35075805" lon="18.43055346">
<ele>104</ele>
<time>2015-05-19T13:01:38Z</time>
</trkpt>
<trkpt lat="53.35073607" lon="18.43076107">
<ele>104</ele>
<time>2015-05-19T13:01:40Z</time>
</trkpt>
<trkpt lat="53.35069901" lon="18.4309632">
<ele>105</ele>
<time>2015-05-19T13:01:42Z</time>
</trkpt>
<trkpt lat="53.35065216" lon="18.43135067">
<ele>107</ele>
<time>2015-05-19T13:01:46Z</time>
</trkpt>
<trkpt lat="53.35066439" lon="18.431575">
<ele>107</ele>
<time>2015-05-19T13:01:48Z</time>
</trkpt>
<trkpt lat="53.35062369" lon="18.43177436">
<ele>106</ele>
<time>2015-05-19T13:01:50Z</time>
</trkpt>
<trkpt lat="53.35059038" lon="18.431989">
<ele>106</ele>
<time>2015-05-19T13:01:52Z</time>
</trkpt>
<trkpt lat="53.3506245" lon="18.43219409">
<ele>108</ele>
<time>2015-05-19T13:01:54Z</time>
</trkpt>
<trkpt lat="53.35059775" lon="18.43239411">
<ele>106</ele>
<time>2015-05-19T13:01:56Z</time>
</trkpt>
<trkpt lat="53.35061641" lon="18.43259349">
<ele>107</ele>
<time>2015-05-19T13:01:58Z</time>
</trkpt>
<trkpt lat="53.35059338" lon="18.43277163">
<ele>110</ele>
<time>2015-05-19T13:02:00Z</time>
</trkpt>
<trkpt lat="53.35056244" lon="18.43295832">
<ele>110</ele>
<time>2015-05-19T13:02:02Z</time>
</trkpt>
<trkpt lat="53.35055496" lon="18.4331585">
<ele>110</ele>
<time>2015-05-19T13:02:04Z</time>
</trkpt>
<trkpt lat="53.35051092" lon="18.43336462">
<ele>109</ele>
<time>2015-05-19T13:02:06Z</time>
</trkpt>
<trkpt lat="53.35045759" lon="18.43355714">
<ele>105</ele>
<time>2015-05-19T13:02:08Z</time>
</trkpt>
<trkpt lat="53.35040316" lon="18.43377323">
<ele>105</ele>
<time>2015-05-19T13:02:10Z</time>
</trkpt>
<trkpt lat="53.3503177" lon="18.4339261">
<ele>102</ele>
<time>2015-05-19T13:02:12Z</time>
</trkpt>
<trkpt lat="53.3502512" lon="18.43408759">
<ele>100</ele>
<time>2015-05-19T13:02:14Z</time>
</trkpt>
<trkpt lat="53.35017729" lon="18.43445488">
<ele>98</ele>
<time>2015-05-19T13:02:18Z</time>
</trkpt>
<trkpt lat="53.35014999" lon="18.43462511">
<ele>98</ele>
<time>2015-05-19T13:02:20Z</time>
</trkpt>
<trkpt lat="53.3501142" lon="18.43478458">
<ele>98</ele>
<time>2015-05-19T13:02:22Z</time>
</trkpt>
<trkpt lat="53.35007099" lon="18.43496309">
<ele>99</ele>
<time>2015-05-19T13:02:24Z</time>
</trkpt>
<trkpt lat="53.35005251" lon="18.43511971">
<ele>100</ele>
<time>2015-05-19T13:02:26Z</time>
</trkpt>
<trkpt lat="53.34999667" lon="18.43528134">
<ele>100</ele>
<time>2015-05-19T13:02:28Z</time>
</trkpt>
<trkpt lat="53.34994715" lon="18.43548671">
<ele>102</ele>
<time>2015-05-19T13:02:30Z</time>
</trkpt>
<trkpt lat="53.34987669" lon="18.43568578">
<ele>102</ele>
<time>2015-05-19T13:02:32Z</time>
</trkpt>
<trkpt lat="53.34982327" lon="18.43590729">
<ele>101</ele>
<time>2015-05-19T13:02:34Z</time>
</trkpt>
<trkpt lat="53.34976854" lon="18.43609186">
<ele>100</ele>
<time>2015-05-19T13:02:36Z</time>
</trkpt>
<trkpt lat="53.34972538" lon="18.43627733">
<ele>100</ele>
<time>2015-05-19T13:02:38Z</time>
</trkpt>
<trkpt lat="53.34968292" lon="18.43638654">
<ele>100</ele>
<time>2015-05-19T13:02:40Z</time>
</trkpt>
<trkpt lat="53.34964421" lon="18.43649337">
<ele>98</ele>
<time>2015-05-19T13:02:42Z</time>
</trkpt>
<trkpt lat="53.34965168" lon="18.43650892">
<ele>97</ele>
<time>2015-05-19T13:02:44Z</time>
</trkpt>
<trkpt lat="53.34964076" lon="18.43653287">
<ele>98</ele>
<time>2015-05-19T13:02:46Z</time>
</trkpt>
<trkpt lat="53.34963756" lon="18.43654643">
<ele>99</ele>
<time>2015-05-19T13:02:48Z</time>
</trkpt>
<trkpt lat="53.34961478" lon="18.43661532">
<ele>99</ele>
<time>2015-05-19T13:02:50Z</time>
</trkpt>
<trkpt lat="53.34959348" lon="18.43668715">
<ele>97</ele>
<time>2015-05-19T13:02:52Z</time>
</trkpt>
<trkpt lat="53.34955562" lon="18.4368191">
<ele>97</ele>
<time>2015-05-19T13:02:54Z</time>
</trkpt>
<trkpt lat="53.34951447" lon="18.43701133">
<ele>96</ele>
<time>2015-05-19T13:02:56Z</time>
</trkpt>
<trkpt lat="53.34948112" lon="18.4371876">
<ele>98</ele>
<time>2015-05-19T13:02:58Z</time>
</trkpt>
<trkpt lat="53.34942562" lon="18.43738977">
<ele>100</ele>
<time>2015-05-19T13:03:00Z</time>
</trkpt>
<trkpt lat="53.34937201" lon="18.43762374">
<ele>100</ele>
<time>2015-05-19T13:03:02Z</time>
</trkpt>
<trkpt lat="53.34931339" lon="18.43783424">
<ele>99</ele>
<time>2015-05-19T13:03:04Z</time>
</trkpt>
<trkpt lat="53.34924386" lon="18.43804382">
<ele>98</ele>
<time>2015-05-19T13:03:06Z</time>
</trkpt>
<trkpt lat="53.34912767" lon="18.43846435">
<ele>95</ele>
<time>2015-05-19T13:03:10Z</time>
</trkpt>
<trkpt lat="53.34907841" lon="18.43863575">
<ele>96</ele>
<time>2015-05-19T13:03:12Z</time>
</trkpt>
<trkpt lat="53.34901157" lon="18.43883464">
<ele>96</ele>
<time>2015-05-19T13:03:14Z</time>
</trkpt>
<trkpt lat="53.34895238" lon="18.43901128">
<ele>95</ele>
<time>2015-05-19T13:03:16Z</time>
</trkpt>
<trkpt lat="53.34891248" lon="18.43920538">
<ele>95</ele>
<time>2015-05-19T13:03:18Z</time>
</trkpt>
<trkpt lat="53.34888666" lon="18.43937735">
<ele>97</ele>
<time>2015-05-19T13:03:20Z</time>
</trkpt>
<trkpt lat="53.34884968" lon="18.43955817">
<ele>97</ele>
<time>2015-05-19T13:03:22Z</time>
</trkpt>
<trkpt lat="53.34886389" lon="18.43974068">
<ele>98</ele>
<time>2015-05-19T13:03:24Z</time>
</trkpt>
<trkpt lat="53.34884204" lon="18.43989156">
<ele>96</ele>
<time>2015-05-19T13:03:26Z</time>
</trkpt>
<trkpt lat="53.34878228" lon="18.44002003">
<ele>97</ele>
<time>2015-05-19T13:03:28Z</time>
</trkpt>
<trkpt lat="53.34873727" lon="18.44015848">
<ele>97</ele>
<time>2015-05-19T13:03:30Z</time>
</trkpt>
<trkpt lat="53.34869249" lon="18.44028746">
<ele>98</ele>
<time>2015-05-19T13:03:32Z</time>
</trkpt>
<trkpt lat="53.34865062" lon="18.44040077">
<ele>99</ele>
<time>2015-05-19T13:03:34Z</time>
</trkpt>
<trkpt lat="53.34862271" lon="18.44050582">
<ele>99</ele>
<time>2015-05-19T13:03:36Z</time>
</trkpt>
<trkpt lat="53.34860861" lon="18.44060412">
<ele>99</ele>
<time>2015-05-19T13:03:38Z</time>
</trkpt>
<trkpt lat="53.34857918" lon="18.44071234">
<ele>100</ele>
<time>2015-05-19T13:03:40Z</time>
</trkpt>
<trkpt lat="53.34854201" lon="18.44085412">
<ele>101</ele>
<time>2015-05-19T13:03:42Z</time>
</trkpt>
<trkpt lat="53.34850638" lon="18.4409945">
<ele>102</ele>
<time>2015-05-19T13:03:44Z</time>
</trkpt>
<trkpt lat="53.34846852" lon="18.4411234">
<ele>100</ele>
<time>2015-05-19T13:03:46Z</time>
</trkpt>
<trkpt lat="53.34841463" lon="18.44123595">
<ele>99</ele>
<time>2015-05-19T13:03:48Z</time>
</trkpt>
<trkpt lat="53.34838321" lon="18.44135861">
<ele>102</ele>
<time>2015-05-19T13:03:50Z</time>
</trkpt>
<trkpt lat="53.34834357" lon="18.4414926">
<ele>102</ele>
<time>2015-05-19T13:03:52Z</time>
</trkpt>
<trkpt lat="53.34829504" lon="18.4416325">
<ele>103</ele>
<time>2015-05-19T13:03:54Z</time>
</trkpt>
<trkpt lat="53.34824556" lon="18.44178868">
<ele>102</ele>
<time>2015-05-19T13:03:56Z</time>
</trkpt>
<trkpt lat="53.34819464" lon="18.44193458">
<ele>103</ele>
<time>2015-05-19T13:03:58Z</time>
</trkpt>
<trkpt lat="53.34814549" lon="18.44206356">
<ele>103</ele>
<time>2015-05-19T13:04:00Z</time>
</trkpt>
<trkpt lat="53.34812725" lon="18.44216013">
<ele>102</ele>
<time>2015-05-19T13:04:02Z</time>
</trkpt>
<trkpt lat="53.3481231" lon="18.44225436">
<ele>103</ele>
<time>2015-05-19T13:04:04Z</time>
</trkpt>
<trkpt lat="53.34808067" lon="18.44232632">
<ele>104</ele>
<time>2015-05-19T13:04:06Z</time>
</trkpt>
<trkpt lat="53.34807053" lon="18.44244158">
<ele>104</ele>
<time>2015-05-19T13:04:08Z</time>
</trkpt>
<trkpt lat="53.34808245" lon="18.44254114">
<ele>103</ele>
<time>2015-05-19T13:04:10Z</time>
</trkpt>
<trkpt lat="53.34811536" lon="18.44261608">
<ele>101</ele>
<time>2015-05-19T13:04:12Z</time>
</trkpt>
<trkpt lat="53.34814162" lon="18.44270557">
<ele>101</ele>
<time>2015-05-19T13:04:14Z</time>
</trkpt>
<trkpt lat="53.34813897" lon="18.44278911">
<ele>101</ele>
<time>2015-05-19T13:04:16Z</time>
</trkpt>
<trkpt lat="53.34813161" lon="18.44280289">
<ele>101</ele>
<time>2015-05-19T13:04:18Z</time>
</trkpt>
<trkpt lat="53.34813541" lon="18.44283386">
<ele>102</ele>
<time>2015-05-19T13:04:20Z</time>
</trkpt>
<trkpt lat="53.34813851" lon="18.44292333">
<ele>101</ele>
<time>2015-05-19T13:04:22Z</time>
</trkpt>
<trkpt lat="53.34810211" lon="18.4430563">
<ele>101</ele>
<time>2015-05-19T13:04:24Z</time>
</trkpt>
<trkpt lat="53.34802784" lon="18.44317913">
<ele>101</ele>
<time>2015-05-19T13:04:26Z</time>
</trkpt>
<trkpt lat="53.34800096" lon="18.44325954">
<ele>101</ele>
<time>2015-05-19T13:04:28Z</time>
</trkpt>
<trkpt lat="53.34799344" lon="18.44335728">
<ele>101</ele>
<time>2015-05-19T13:04:30Z</time>
</trkpt>
<trkpt lat="53.34796917" lon="18.44346111">
<ele>101</ele>
<time>2015-05-19T13:04:32Z</time>
</trkpt>
<trkpt lat="53.34790964" lon="18.44356336">
<ele>102</ele>
<time>2015-05-19T13:04:34Z</time>
</trkpt>
<trkpt lat="53.34784456" lon="18.4436775">
<ele>101</ele>
<time>2015-05-19T13:04:36Z</time>
</trkpt>
<trkpt lat="53.3477853" lon="18.44378108">
<ele>101</ele>
<time>2015-05-19T13:04:38Z</time>
</trkpt>
<trkpt lat="53.34777628" lon="18.44387568">
<ele>101</ele>
<time>2015-05-19T13:04:40Z</time>
</trkpt>
<trkpt lat="53.34781556" lon="18.44396927">
<ele>101</ele>
<time>2015-05-19T13:04:42Z</time>
</trkpt>
<trkpt lat="53.34784101" lon="18.44407646">
<ele>100</ele>
<time>2015-05-19T13:04:44Z</time>
</trkpt>
<trkpt lat="53.34781258" lon="18.4442066">
<ele>100</ele>
<time>2015-05-19T13:04:46Z</time>
</trkpt>
<trkpt lat="53.34775687" lon="18.4442928">
<ele>99</ele>
<time>2015-05-19T13:04:48Z</time>
</trkpt>
<trkpt lat="53.34772718" lon="18.44431631">
<ele>99</ele>
<time>2015-05-19T13:04:50Z</time>
</trkpt>
<trkpt lat="53.34770872" lon="18.44434786">
<ele>99</ele>
<time>2015-05-19T13:04:52Z</time>
</trkpt>
<trkpt lat="53.34766641" lon="18.44441947">
<ele>98</ele>
<time>2015-05-19T13:04:54Z</time>
</trkpt>
<trkpt lat="53.34759221" lon="18.44452081">
<ele>96</ele>
<time>2015-05-19T13:04:56Z</time>
</trkpt>
<trkpt lat="53.3475021" lon="18.44465588">
<ele>96</ele>
<time>2015-05-19T13:04:58Z</time>
</trkpt>
<trkpt lat="53.34742995" lon="18.4447834">
<ele>97</ele>
<time>2015-05-19T13:05:00Z</time>
</trkpt>
<trkpt lat="53.34737173" lon="18.44493549">
<ele>98</ele>
<time>2015-05-19T13:05:02Z</time>
</trkpt>
<trkpt lat="53.34732109" lon="18.44503014">
<ele>98</ele>
<time>2015-05-19T13:05:04Z</time>
</trkpt>
<trkpt lat="53.34727394" lon="18.44516983">
<ele>96</ele>
<time>2015-05-19T13:05:06Z</time>
</trkpt>
<trkpt lat="53.34725722" lon="18.44531399">
<ele>98</ele>
<time>2015-05-19T13:05:08Z</time>
</trkpt>
<trkpt lat="53.34729175" lon="18.44543925">
<ele>98</ele>
<time>2015-05-19T13:05:10Z</time>
</trkpt>
<trkpt lat="53.3473651" lon="18.44550965">
<ele>97</ele>
<time>2015-05-19T13:05:12Z</time>
</trkpt>
<trkpt lat="53.34744975" lon="18.44556177">
<ele>98</ele>
<time>2015-05-19T13:05:14Z</time>
</trkpt>
<trkpt lat="53.34752956" lon="18.44559459">
<ele>98</ele>
<time>2015-05-19T13:05:16Z</time>
</trkpt>
<trkpt lat="53.34760987" lon="18.44561851">
<ele>99</ele>
<time>2015-05-19T13:05:18Z</time>
</trkpt>
<trkpt lat="53.34768671" lon="18.44564148">
<ele>99</ele>
<time>2015-05-19T13:05:20Z</time>
</trkpt>
<trkpt lat="53.34776313" lon="18.44566301">
<ele>99</ele>
<time>2015-05-19T13:05:22Z</time>
</trkpt>
<trkpt lat="53.34783996" lon="18.44567876">
<ele>99</ele>
<time>2015-05-19T13:05:24Z</time>
</trkpt>
<trkpt lat="53.34791521" lon="18.44565625">
<ele>100</ele>
<time>2015-05-19T13:05:26Z</time>
</trkpt>
<trkpt lat="53.34798428" lon="18.44559677">
<ele>100</ele>
<time>2015-05-19T13:05:28Z</time>
</trkpt>
<trkpt lat="53.34805423" lon="18.4455369">
<ele>101</ele>
<time>2015-05-19T13:05:30Z</time>
</trkpt>
<trkpt lat="53.34812948" lon="18.44551313">
<ele>101</ele>
<time>2015-05-19T13:05:32Z</time>
</trkpt>
<trkpt lat="53.34820316" lon="18.44550547">
<ele>101</ele>
<time>2015-05-19T13:05:34Z</time>
</trkpt>
<trkpt lat="53.34825788" lon="18.44552328">
<ele>100</ele>
<time>2015-05-19T13:05:36Z</time>
</trkpt>
<trkpt lat="53.34828128" lon="18.44558322">
<ele>100</ele>
<time>2015-05-19T13:05:38Z</time>
</trkpt>
<trkpt lat="53.34827394" lon="18.44566395">
<ele>101</ele>
<time>2015-05-19T13:05:40Z</time>
</trkpt>
<trkpt lat="53.34825584" lon="18.44575157">
<ele>101</ele>
<time>2015-05-19T13:05:42Z</time>
</trkpt>
<trkpt lat="53.34824722" lon="18.44584809">
<ele>100</ele>
<time>2015-05-19T13:05:44Z</time>
</trkpt>
<trkpt lat="53.34825135" lon="18.44595256">
<ele>101</ele>
<time>2015-05-19T13:05:46Z</time>
</trkpt>
<trkpt lat="53.34824237" lon="18.44605084">
<ele>100</ele>
<time>2015-05-19T13:05:48Z</time>
</trkpt>
<trkpt lat="53.34824719" lon="18.4461559">
<ele>100</ele>
<time>2015-05-19T13:05:50Z</time>
</trkpt>
<trkpt lat="53.34826694" lon="18.44622577">
<ele>101</ele>
<time>2015-05-19T13:05:52Z</time>
</trkpt>
<trkpt lat="53.34829415" lon="18.44626887">
<ele>101</ele>
<time>2015-05-19T13:05:54Z</time>
</trkpt>
<trkpt lat="53.34831371" lon="18.44628638">
<ele>102</ele>
<time>2015-05-19T13:05:56Z</time>
</trkpt>
<trkpt lat="53.34831208" lon="18.44627811">
<ele>102</ele>
<time>2015-05-19T13:05:58Z</time>
</trkpt>
<trkpt lat="53.34830122" lon="18.44627279">
<ele>102</ele>
<time>2015-05-19T13:06:00Z</time>
</trkpt>
<trkpt lat="53.34830795" lon="18.44627428">
<ele>106</ele>
<time>2015-05-19T13:06:02Z</time>
</trkpt>
<trkpt lat="53.34832093" lon="18.44626711">
<ele>106</ele>
<time>2015-05-19T13:06:04Z</time>
</trkpt>
<trkpt lat="53.34833592" lon="18.44625231">
<ele>106</ele>
<time>2015-05-19T13:06:07Z</time>
</trkpt>
<trkpt lat="53.34833938" lon="18.44626602">
<ele>106</ele>
<time>2015-05-19T13:06:10Z</time>
</trkpt>
<trkpt lat="53.34834167" lon="18.4462769">
<ele>106</ele>
<time>2015-05-19T13:06:12Z</time>
</trkpt>
<trkpt lat="53.34835649" lon="18.44627572">
<ele>106</ele>
<time>2015-05-19T13:06:14Z</time>
</trkpt>
<trkpt lat="53.34839027" lon="18.44626989">
<ele>106</ele>
<time>2015-05-19T13:06:16Z</time>
</trkpt>
<trkpt lat="53.34841759" lon="18.44622583">
<ele>107</ele>
<time>2015-05-19T13:06:18Z</time>
</trkpt>
<trkpt lat="53.34844155" lon="18.4461859">
<ele>107</ele>
<time>2015-05-19T13:06:20Z</time>
</trkpt>
<trkpt lat="53.34846371" lon="18.44616349">
<ele>107</ele>
<time>2015-05-19T13:06:22Z</time>
</trkpt>
<trkpt lat="53.34849812" lon="18.44613979">
<ele>107</ele>
<time>2015-05-19T13:06:24Z</time>
</trkpt>
<trkpt lat="53.34850699" lon="18.44610511">
<ele>107</ele>
<time>2015-05-19T13:06:26Z</time>
</trkpt>
<trkpt lat="53.34915797" lon="18.44618378">
<ele>96</ele>
<time>2015-05-19T13:07:27Z</time>
</trkpt>
<trkpt lat="53.34904358" lon="18.44616559">
<ele>95</ele>
<time>2015-05-19T13:07:30Z</time>
</trkpt>
<trkpt lat="53.34897628" lon="18.44613715">
<ele>98</ele>
<time>2015-05-19T13:07:32Z</time>
</trkpt>
<trkpt lat="53.34851183" lon="18.44612782">
<ele>104</ele>
<time>2015-05-19T13:07:34Z</time>
</trkpt>
<trkpt lat="" lon="">
<ele></ele>
<time>2015-05-19TZ</time>
</trkpt>
</trkseg>
</trk>
<wpt lat="" lon="">
	<name></name>
	<desc></desc>
	<cmt></cmt>
	<photoid></photoid>
	<type></type>
</wpt>
</gpx>
